Flight Track Log - Related Links

Times and Time Zones

All times are in EDT time to prevent confusion due to time zone crossing. See the N789EX flight status page for this flight to view local times or setup timezone preferences in your user account.

Time Position Orientation Groundspeed Altitude Reporting Facility
EDT Latitude Longitude Course Direction KTS MPH feet Rate Location/Type
Wed 01:25:03 PM 47.4824 -122.2570 145° Southeast 218 251 2,200  Level FlightAware ADS-B
Wed 01:25:13 PM 47.4734 -122.2480 146° Southeast 233 268 2,500 1,846 Climbing FlightAware ADS-B
Wed 01:25:16 PM 47.4707 -122.2460 148° Southeast 236 272 2,600 2,000 Climbing FlightAware ADS-B
Wed 01:25:19 PM 47.4675 -122.2430 153° Southeast 239 275 2,700 1,714 Climbing FlightAware ADS-B
Wed 01:25:23 PM 47.4640 -122.2410 159° South 242 278 2,800 2,571 Climbing FlightAware ADS-B
Wed 01:25:26 PM 47.4600 -122.2400 167° South 246 283 3,000 2,571 Climbing FlightAware ADS-B
Wed 01:25:30 PM 47.4557 -122.2390 176° South 250 288 3,100 1,500 Climbing FlightAware ADS-B
Wed 01:25:34 PM 47.4513 -122.2390 185° South 253 291 3,200 2,250 Climbing FlightAware ADS-B
Wed 01:25:38 PM 47.4473 -122.2400 192° South 255 293 3,400 3,000 Climbing FlightAware ADS-B
Wed 01:25:42 PM 47.4429 -122.2430 202° Southwest 256 295 3,600 3,429 Climbing FlightAware ADS-B
Wed 01:25:45 PM 47.4387 -122.2460 211° Southwest 258 297 3,800 3,000 Climbing FlightAware ADS-B
Wed 01:25:50 PM 47.4349 -122.2500 220° Southwest 260 299 4,000 3,000 Climbing FlightAware ADS-B
Wed 01:25:53 PM 47.4324 -122.2540 227° Southwest 261 300 4,200 4,000 Climbing FlightAware ADS-B
Wed 01:25:56 PM 47.4297 -122.2600 236° Southwest 263 303 4,400 2,571 Climbing FlightAware ADS-B
Wed 01:26:00 PM 47.4278 -122.2650 242° Southwest 264 304 4,500 2,250 Climbing FlightAware ADS-B
Wed 01:26:04 PM 47.4255 -122.2730 248° West 266 306 4,700 3,273 Climbing FlightAware ADS-B
Wed 01:26:11 PM 47.4222 -122.2850 247° West 272 313 5,100 2,769 Climbing FlightAware ADS-B
Wed 01:26:17 PM 47.4189 -122.2940 242° Southwest 275 316 5,300 2,500 Climbing FlightAware ADS-B
Wed 01:26:23 PM 47.4156 -122.3040 243° Southwest 278 320 5,600 3,333 Climbing FlightAware ADS-B
Wed 01:26:26 PM 47.4137 -122.3090 246° West 279 321 5,800 3,667 Climbing FlightAware ADS-B
Wed 01:26:41 PM 47.4064 -122.3370 248° West 280 322 6,700 3,529 Climbing FlightAware ADS-B
Wed 01:26:43 PM 47.4057 -122.3392 248° West 279 321 6,800 4,000 Climbing FlightAware ADS-B
Wed 01:26:53 PM 47.4007 -122.3580 249° West 279 321 7,500 4,000 Climbing FlightAware ADS-B
Wed 01:27:01 PM 47.3977 -122.3702 250° West 279 321 8,000 3,375 Climbing FlightAware ADS-B
Wed 01:27:09 PM 47.3939 -122.3860 251° West 278 320 8,400 3,273 Climbing FlightAware ADS-B
Wed 01:27:23 PM 47.3893 -122.4060 252° West 278 320 9,200 3,375 Climbing FlightAware ADS-B
Wed 01:27:25 PM 47.3875 -122.4140 252° West 278 320 9,300 7,333 Climbing FlightAware ADS-B
Wed 01:27:32 PM 47.3836 -122.4320 252° West 279 321 10,300 3,000 Climbing FlightAware ADS-B
Wed 01:27:55 PM 47.3757 -122.4690 253° West 283 326 10,800 1,636 Climbing FlightAware ADS-B
Wed 01:28:05 PM 47.3718 -122.4871 253° West 287 330 11,200 2,000 Climbing FlightAware ADS-B
Wed 01:28:25 PM 47.3639 -122.5260 253° West 292 336 11,800 1,400 Climbing FlightAware ADS-B
Wed 01:28:35 PM 47.3595 -122.5473 253° West 284 327 11,900 194 Climbing FlightAware ADS-B
Wed 01:28:56 PM 47.3519 -122.5850 253° West 295 339 11,900  Level FlightAware ADS-B
Wed 01:29:06 PM 47.3497 -122.5949 253° West 295 339 11,900 -200 Level FlightAware ADS-B
Wed 01:29:26 PM 47.3398 -122.6420 253° West 296 341 11,800 -720 Descending FlightAware ADS-B
Wed 01:29:56 PM 47.3274 -122.7000 253° West 294 338 11,300 -938 Descending FlightAware ADS-B
Wed 01:29:58 PM 47.3292 -122.6921 253° West 293 337 11,300 -800 Level FlightAware ADS-B (CYVR)
Wed 01:30:26 PM 47.3153 -122.7580 253° West 290 334 10,900 -686 Descending FlightAware ADS-B
Wed 01:30:33 PM 47.3375 -122.6529 253° West 295 339 10,900  Level FlightAware ADS-B
Wed 01:30:56 PM 47.3034 -122.8130 252° West 276 318 10,900  Level FlightAware ADS-B
Wed 01:31:19 PM 47.2950 -122.8520 251° West 260 299 10,900  Level FlightAware ADS-B
Wed 01:31:36 PM 47.2882 -122.8790 249° West 243 280 10,900  Level FlightAware ADS-B
Wed 01:32:07 PM 47.2764 -122.9240 249° West 213 245 10,900  Level FlightAware ADS-B
Wed 01:32:32 PM 47.2681 -122.9564 249° West 192 221 10,900  Level FlightAware ADS-B
Wed 01:32:38 PM 47.2663 -122.9630 249° West 191 220 10,900  Level FlightAware ADS-B
Wed 01:32:56 PM 47.2604 -122.9860 249° West 190 219 10,900  Level FlightAware ADS-B
Wed 01:33:11 PM 47.2558 -123.0035 249° West 191 220 10,900  Level FlightAware ADS-B (KPFC)
Wed 01:33:27 PM 47.2508 -123.0220 249° West 189 217 10,900  Level FlightAware ADS-B
Wed 01:33:56 PM 47.2414 -123.0570 249° West 189 217 10,900  Level FlightAware ADS-B
Wed 01:34:26 PM 47.2319 -123.0940 249° West 191 220 10,900 -122 Level FlightAware ADS-B
Wed 01:34:45 PM 47.2261 -123.1161 249° West 190 219 10,800 -194 Descending FlightAware ADS-B (KPFC)
Wed 01:34:57 PM 47.2226 -123.1300 249° West 191 220 10,800 -176 Level FlightAware ADS-B
Wed 01:35:19 PM 47.2155 -123.1580 250° West 192 221 10,700  Descending FlightAware ADS-B
Wed 01:35:55 PM 47.2048 -123.2010 250° West 189 217 10,800 91 Climbing FlightAware ADS-B
Wed 01:36:25 PM 47.1952 -123.2380 249° West 193 222 10,800  Level FlightAware ADS-B
Wed 01:36:30 PM 47.1936 -123.2446 250° West 192 221 10,800  Level FlightAware ADS-B (KPFC)
Wed 01:36:46 PM 47.1886 -123.2640 250° West 192 221 10,800  Level FlightAware ADS-B
Wed 01:37:09 PM 47.1814 -123.2920 249° West 192 221 10,800  Level FlightAware ADS-B
Wed 01:37:11 PM 47.1808 -123.2944 249° West 192 221 10,800  Level FlightAware ADS-B (KPFC)
Wed 01:37:28 PM 47.1752 -123.3150 248° West 192 221 10,800  Level FlightAware ADS-B
Wed 01:37:47 PM 47.1688 -123.3382 250° West 189 217 10,800  Level FlightAware ADS-B (KPFC)
Wed 01:37:52 PM 47.1674 -123.3430 248° West 193 222 10,800 -600 Level FlightAware ADS-B
Wed 01:38:17 PM 47.1590 -123.3750 249° West 202 232 10,500 -500 Descending FlightAware ADS-B
Wed 01:38:28 PM 47.1556 -123.3888 250° West 200 230 10,500  Level FlightAware ADS-B (KPFC)
Wed 01:38:38 PM 47.1524 -123.4020 251° West 195 224 10,500 188 Level FlightAware ADS-B
Wed 01:39:00 PM 47.1465 -123.4296 252° West 208 239 10,600 200 Climbing FlightAware ADS-B (KPFC)
Wed 01:39:08 PM 47.1440 -123.4410 253° West 215 247 10,600  Level FlightAware ADS-B
Wed 01:39:18 PM 47.1407 -123.4560 250° West 221 254 10,600  Level FlightAware ADS-B
Wed 01:39:39 PM 47.1331 -123.4853 249° West 221 254 10,600  Level FlightAware ADS-B (KPFC)
Wed 01:39:49 PM 47.1297 -123.4980 249° West 222 255 10,600 194 Level FlightAware ADS-B
Wed 01:40:10 PM 47.1214 -123.5280 245° Southwest 222 255 10,700 273 Climbing FlightAware ADS-B
Wed 01:40:11 PM 47.1210 -123.5290 244° Southwest 222 255 10,700 231 Level FlightAware ADS-B (KPFC)
Wed 01:40:36 PM 47.1090 -123.5620 241° Southwest 218 251 10,800  Climbing FlightAware ADS-B
Wed 01:40:48 PM 47.1032 -123.5780 243° Southwest 217 250 10,700 -400 Descending FlightAware ADS-B
Wed 01:40:51 PM 47.1018 -123.5821 244° Southwest 216 249 10,700  Level FlightAware ADS-B (KPFC)
Wed 01:41:03 PM 47.0969 -123.5980 246° West 210 242 10,700 182 Level FlightAware ADS-B
Wed 01:41:24 PM 47.0897 -123.6235 251° West 196 226 10,800 387 Climbing FlightAware ADS-B (KPFC)
Wed 01:41:34 PM 47.0864 -123.6360 249° West 196 226 10,900 150 Climbing FlightAware ADS-B
Wed 01:42:04 PM 47.0771 -123.6730 250° West 188 216 10,900  Level FlightAware ADS-B
Wed 01:42:34 PM 47.0679 -123.7090 249° West 189 217 10,900  Level FlightAware ADS-B
Wed 01:42:36 PM 47.0674 -123.7103 249° West 189 217 10,900  Level FlightAware ADS-B (KPFC)
Wed 01:42:59 PM 47.0602 -123.7380 250° West 189 217 10,900  Level FlightAware ADS-B
Wed 01:43:14 PM 47.0557 -123.7569 253° West 186 214 10,900  Level FlightAware ADS-B (KPFC)
Wed 01:43:29 PM 47.0515 -123.7740 250° West 188 216 10,900  Level FlightAware ADS-B
Wed 01:43:51 PM 47.0453 -123.8000 252° West 188 216 10,900 -158 Level FlightAware ADS-B
Wed 01:44:07 PM 47.0412 -123.8200 255° West 191 220 10,800 -732 Descending FlightAware ADS-B
Wed 01:44:32 PM 47.0363 -123.8529 261° West 205 236 10,400 -923 Descending FlightAware ADS-B (KPFC)
Wed 01:44:33 PM 47.0360 -123.8550 259° West 206 237 10,400  Level FlightAware ADS-B
Wed 01:44:57 PM 47.0319 -123.8870 259° West 200 230 10,400  Level FlightAware ADS-B
Wed 01:45:06 PM 47.0298 -123.8980 252° West 202 232 10,400  Level FlightAware ADS-B
Wed 01:45:07 PM 47.0292 -123.9007 250° West 203 234 10,400  Level FlightAware ADS-B (KPFC)
Wed 01:45:30 PM 47.0216 -123.9290 247° West 203 234 10,400  Level FlightAware ADS-B
Wed 01:45:47 PM 47.0149 -123.9511 246° West 202 232 10,400  Level FlightAware ADS-B (KPFC)
Wed 01:46:00 PM 47.0101 -123.9670 246° West 199 229 10,400  Level FlightAware ADS-B
Wed 01:46:20 PM 47.0027 -123.9905 245° Southwest 194 223 10,400  Level FlightAware ADS-B (KPFC)
Wed 01:46:31 PM 46.9983 -124.0040 245° Southwest 195 224 10,400  Level FlightAware ADS-B
Wed 01:46:56 PM 46.9887 -124.0330 244° Southwest 195 224 10,400  Level FlightAware ADS-B
Wed 01:47:00 PM 46.9871 -124.0381 244° Southwest 195 224 10,400 194 Level FlightAware ADS-B (KPFC)
Wed 01:47:27 PM 46.9763 -124.0690 243° Southwest 194 223 10,500 200 Climbing FlightAware ADS-B
Wed 01:47:30 PM 46.9747 -124.0741 245° Southwest 190 219 10,500 273 Level FlightAware ADS-B (KPFC)
Wed 01:47:49 PM 46.9673 -124.0950 242° Southwest 193 222 10,600 146 Climbing FlightAware ADS-B
Wed 01:48:11 PM 46.9577 -124.1211 244° Southwest 187 215 10,600  Level FlightAware ADS-B (KPFC)
Wed 01:48:20 PM 46.9542 -124.1300 240° Southwest 190 219 10,600  Level FlightAware ADS-B
Wed 01:48:27 PM 46.9506 -124.1380 231° Southwest 192 221 10,600  Level FlightAware ADS-B
Wed 01:48:30 PM 46.9482 -124.1410 224° Southwest 193 222 10,600  Level FlightAware ADS-B
Wed 01:48:35 PM 46.9448 -124.1450 215° Southwest 195 224 10,600  Level FlightAware ADS-B
Wed 01:48:39 PM 46.9422 -124.1470 209° Southwest 195 224 10,600  Level FlightAware ADS-B
Wed 01:48:44 PM 46.9380 -124.1500 200° South 196 226 10,600  Level FlightAware ADS-B
Wed 01:48:47 PM 46.9350 -124.1510 194° South 196 226 10,600  Level FlightAware ADS-B
Wed 01:48:50 PM 46.9323 -124.1520 189° South 196 226 10,600  Level FlightAware ADS-B
Wed 01:48:54 PM 46.9287 -124.1520 183° South 196 226 10,600  Level FlightAware ADS-B
Wed 01:49:03 PM 46.9202 -124.1510 172° South 196 226 10,600  Level FlightAware ADS-B
Wed 01:49:07 PM 46.9168 -124.1503 169° South 196 226 10,600  Level FlightAware ADS-B (KPFC)
Wed 01:49:26 PM 46.9000 -124.1450 166° South 192 221 10,600  Level FlightAware ADS-B
Wed 01:49:54 PM 46.8763 -124.1360 166° South 192 221 10,600 -162 Level FlightAware ADS-B
Wed 01:50:03 PM 46.8681 -124.1331 166° South 185 213 10,500 -250 Descending FlightAware ADS-B (KPFC)
Wed 01:50:18 PM 46.8554 -124.1290 167° South 194 223 10,500 167 Level FlightAware ADS-B
Wed 01:50:39 PM 46.8367 -124.1230 170° South 194 223 10,600 240 Climbing FlightAware ADS-B
Wed 01:50:43 PM 46.8335 -124.1222 170° South 185 213 10,600 353 Level FlightAware ADS-B (KPFC)
Wed 01:50:56 PM 46.8218 -124.1200 171° South 192 221 10,700 214 Climbing FlightAware ADS-B
Wed 01:51:11 PM 46.8090 -124.1150 164° South 198 228 10,700  Level FlightAware ADS-B
Wed 01:51:19 PM 46.8019 -124.1122 164° South 200 230 10,700 -240 Level FlightAware ADS-B (KPFC)
Wed 01:51:36 PM 46.7861 -124.1060 165° South 200 230 10,600  Descending FlightAware ADS-B
Wed 01:52:00 PM 46.7653 -124.0970 163° South 195 224 10,700 333 Climbing FlightAware ADS-B
Wed 01:52:30 PM 46.7404 -124.0850 162° South 182 209 10,900 375 Climbing FlightAware ADS-B
Wed 01:52:32 PM 46.7393 -124.0849 161° South 175 201 10,900 333 Level FlightAware ADS-B (KPFC)
Wed 01:52:48 PM 46.7260 -124.0780 162° South 185 213 11,000 261 Climbing FlightAware ADS-B
Wed 01:52:55 PM 46.7205 -124.0760 164° South 187 215 11,000  Level FlightAware ADS-B
Wed 01:53:10 PM 46.7081 -124.0710 165° South 187 215 11,000  Level FlightAware ADS-B
Wed 01:53:12 PM 46.7064 -124.0707 165° South 188 216 11,000  Level FlightAware ADS-B (KPFC)
Wed 01:53:43 PM 46.6801 -124.0596 163° South 188 216 11,000  Level FlightAware ADS-B (KPFC)
Wed 01:53:47 PM 46.6766 -124.0580 163° South 188 216 11,000  Level FlightAware ADS-B
Wed 01:54:18 PM 46.6512 -124.0470 163° South 188 216 11,000  Level FlightAware ADS-B
Wed 01:54:23 PM 46.6472 -124.0451 163° South 187 215 11,000  Level FlightAware ADS-B (KPFC)
Wed 01:54:35 PM 46.6368 -124.0410 164° South 186 214 11,000  Level FlightAware ADS-B
Wed 01:54:44 PM 46.6294 -124.0380 167° South 186 214 11,000  Level FlightAware ADS-B
Wed 01:54:55 PM 46.6202 -124.0352 170° South 185 213 11,000 -273 Level FlightAware ADS-B (KPFC)
Wed 01:55:06 PM 46.6109 -124.0330 170° South 187 215 10,900 -300 Descending FlightAware ADS-B
Wed 01:55:35 PM 46.5860 -124.0269 170° South 184 212 10,800 -188 Descending FlightAware ADS-B (KPFC)
Wed 01:55:38 PM 46.5843 -124.0260 170° South 183 211 10,800  Level FlightAware ADS-B
Wed 01:56:07 PM 46.5597 -124.0200 170° South 184 212 10,800  Level FlightAware ADS-B (KPFC)
Wed 01:56:10 PM 46.5571 -124.0190 170° South 184 212 10,800 353 Level FlightAware ADS-B
Wed 01:56:24 PM 46.5454 -124.0160 169° South 184 212 10,900 286 Climbing FlightAware ADS-B
Wed 01:56:31 PM 46.5395 -124.0140 164° South 183 211 10,900  Level FlightAware ADS-B
Wed 01:56:39 PM 46.5332 -124.0110 160° South 184 212 10,900  Level FlightAware ADS-B
Wed 01:56:47 PM 46.5267 -124.0074 156° South 178 205 10,900  Level FlightAware ADS-B (KPFC)
Wed 01:57:01 PM 46.5155 -124.0000 156° South 187 215 10,900  Level FlightAware ADS-B
Wed 01:57:20 PM 46.5011 -123.9910 155° Southeast 188 216 10,900  Level FlightAware ADS-B
Wed 01:57:26 PM 46.4957 -123.9880 159° South 188 216 10,900  Level FlightAware ADS-B
Wed 01:57:30 PM 46.4930 -123.9870 163° South 187 215 10,900  Level FlightAware ADS-B
Wed 01:57:35 PM 46.4885 -123.9860 174° South 186 214 10,900  Level FlightAware ADS-B
Wed 01:57:39 PM 46.4854 -123.9860 183° South 186 214 10,900  Level FlightAware ADS-B
Wed 01:57:53 PM 46.4731 -123.9880 185° South 190 219 10,900  Level FlightAware ADS-B
Wed 01:58:00 PM 46.4673 -123.9880 182° South 190 219 10,900  Level FlightAware ADS-B
Wed 01:58:03 PM 46.4641 -123.9880 175° South 190 219 10,900  Level FlightAware ADS-B
Wed 01:58:07 PM 46.4606 -123.9870 170° South 189 217 10,900  Level FlightAware ADS-B
Wed 01:58:11 PM 46.4571 -123.9860 164° South 189 217 10,900 600 Level FlightAware ADS-B
Wed 01:58:17 PM 46.4521 -123.9830 156° South 187 215 11,000 667 Climbing FlightAware ADS-B
Wed 01:58:20 PM 46.4504 -123.9817 154° Southeast 180 207 11,000  Level FlightAware ADS-B (KPFC)
Wed 01:58:47 PM 46.4286 -123.9670 156° South 188 216 11,000  Level FlightAware ADS-B
Wed 01:58:59 PM 46.4189 -123.9610 155° Southeast 180 207 11,000  Level FlightAware ADS-B (KPFC)
Wed 01:59:18 PM 46.4042 -123.9520 156° South 188 216 11,000  Level FlightAware ADS-B
Wed 01:59:36 PM 46.3896 -123.9420 156° South 189 217 11,000  Level FlightAware ADS-B
Wed 01:59:51 PM 46.3778 -123.9346 154° Southeast 181 208 11,000  Level FlightAware ADS-B (KPFC)
Wed 02:00:01 PM 46.3702 -123.9300 156° South 188 216 11,000  Level FlightAware ADS-B
Wed 02:00:31 PM 46.3459 -123.9139 154° Southeast 180 207 11,000  Level FlightAware ADS-B (KPFC)
Wed 02:00:39 PM 46.3402 -123.9100 154° Southeast 187 215 11,000  Level FlightAware ADS-B
Wed 02:01:03 PM 46.3210 -123.8962 152° Southeast 181 208 11,000  Level FlightAware ADS-B (KPFC)
Wed 02:01:39 PM 46.2930 -123.8800 153° Southeast 188 216 11,000  Level FlightAware ADS-B
Wed 02:01:43 PM 46.2895 -123.8790 171° South 189 217 11,000  Level FlightAware ADS-B
Wed 02:02:15 PM 46.2620 -123.8730 172° South 186 214 11,000  Level FlightAware ADS-B
Wed 02:02:17 PM 46.2601 -123.8727 172° South 186 214 11,000 -188 Level FlightAware ADS-B
Wed 02:02:47 PM 46.2336 -123.8687 175° South 182 209 10,900 -98 Descending FlightAware ADS-B (KPFC)
Wed 02:03:18 PM 46.2098 -123.8664 177° South 189 217 10,900  Level FlightAware ADS-B
Wed 02:03:48 PM 46.1806 -123.8670 1000° North 185 213 10,900  Level FlightAware ADS-B
Wed 02:03:57 PM 46.1782 -123.8676 210° Southwest 188 216 10,900 207 Level FlightAware ADS-B
Wed 02:04:17 PM 46.1615 -123.8887 243° Southwest 184 212 11,000 154 Climbing FlightAware ADS-B
Wed 02:04:36 PM 46.1564 -123.9109 255° West 184 212 11,000 -102 Level FlightAware ADS-B
Wed 02:05:16 PM 46.1506 -123.9576 261° West 178 205 10,900 -76 Descending FlightAware ADS-B
Wed 02:05:55 PM 46.1448 -124.0046 258° West 181 208 10,900  Level FlightAware ADS-B (KPFC)
Wed 02:06:31 PM 46.1386 -124.0470 259° West 180 207 10,900 79 Level FlightAware ADS-B (KPFC)
Wed 02:07:11 PM 46.1325 -124.0906 259° West 168 193 11,000 -83 Climbing FlightAware ADS-B (KPFC)
Wed 02:07:43 PM 46.1278 -124.1267 259° West 176 203 10,800 -83 Descending FlightAware ADS-B (KPFC)
Wed 02:08:23 PM 46.1210 -124.1726 260° West 179 206 10,900 83 Climbing FlightAware ADS-B (KPFC)
Wed 02:08:55 PM 46.1156 -124.2098 258° West 179 206 10,900 164 Level FlightAware ADS-B (KPFC)
Wed 02:09:36 PM 46.1085 -124.2545 257° West 163 188 11,100 83 Climbing FlightAware ADS-B (KPFC)
Wed 02:10:07 PM 46.1027 -124.2895 258° West 174 200 11,000 -115 Descending FlightAware ADS-B (KPFC)
Wed 02:10:28 PM 46.0965 -124.3120 242° Southwest 176 203 11,000 -83 Level FlightAware ADS-B (KPFC)
Wed 02:11:19 PM 46.0718 -124.3646 238° Southwest 181 208 10,900 -264 Descending FlightAware ADS-B (KPFC)
Wed 02:11:59 PM 46.0528 -124.4064 240° Southwest 198 228 10,600 -234 Descending FlightAware ADS-B (KPFC)
Wed 02:12:36 PM 46.0347 -124.4504 241° Southwest 204 235 10,600 158 Level FlightAware ADS-B (KPFC)
Wed 02:13:15 PM 46.0150 -124.4949 238° Southwest 191 220 10,800 225 Climbing FlightAware ADS-B (KPFC)
Wed 02:13:56 PM 45.9943 -124.5372 237° Southwest 184 212 10,900 286 Climbing FlightAware ADS-B (KPFC)
Wed 02:14:39 PM 45.9730 -124.5809 238° Southwest 157 181 11,200  Climbing FlightAware ADS-B (KPFC)
Wed 02:15:31 PM 45.9493 -124.6286 235° Southwest 177 204 10,900 -129 Descending FlightAware ADS-B (KPFC)
Wed 02:16:12 PM 45.9297 -124.6680 236° Southwest 178 205 11,000 75 Climbing FlightAware ADS-B (KPFC)
Wed 02:16:51 PM 45.9099 -124.7070 235° Southwest 178 205 11,000  Level FlightAware ADS-B (KPFC)
Wed 02:18:08 PM 45.8683 -124.7894 237° Southwest 183 211 11,000  Level FlightAware ADS-B (KPFC)
Wed 02:18:48 PM 45.8479 -124.8290 233° Southwest 185 213 11,000  Level FlightAware ADS-B (KPFC)
Wed 02:19:27 PM 45.8270 -124.8666 230° Southwest 185 213 11,000 77 Level FlightAware ADS-B (KPFC)
Wed 02:20:06 PM 45.8052 -124.9026 230° Southwest 178 205 11,100 71 Climbing FlightAware ADS-B (KPFC)
Wed 02:20:51 PM 45.7789 -124.9422 225° Southwest 184 212 11,100  Level FlightAware ADS-B (KPFC)
Wed 02:21:24 PM 45.7589 -124.9703 223° Southwest 182 209 11,100  Level FlightAware ADS-B (KPFC)
Wed 02:22:28 PM 45.7182 -125.0205 211° Southwest 189 217 11,100  Level FlightAware ADS-B (KPFC)
Wed 02:22:47 PM 45.7024 -125.0311 200° South 193 222 11,100 102 Level FlightAware ADS-B (KPFC)
Wed 02:23:27 PM 45.6656 -125.0432 193° South 202 232 11,200 71 Climbing FlightAware ADS-B (KPFC)
Wed 02:24:11 PM 45.6223 -125.0552 190° South 227 261 11,200  Level FlightAware ADS-B (KPFC)
Wed 02:25:07 PM 45.5642 -125.0686 188° South 227 261 11,200  Level FlightAware ADS-B (KPFC)
Wed 02:25:47 PM 45.5224 -125.0772 188° South 232 267 11,200 -214 Level FlightAware ADS-B (KPFC)
Wed 02:26:31 PM 45.4741 -125.0874 189° South 242 278 10,900 -357 Descending FlightAware ADS-B (KPFC)
Wed 02:27:11 PM 45.4291 -125.0982 190° South 250 288 10,700 -316 Descending FlightAware ADS-B (KPFC)
Wed 02:27:47 PM 45.3883 -125.1090 191° South 249 287 10,500 -162 Descending FlightAware ADS-B (KPFC)
Wed 02:28:25 PM 45.3442 -125.1221 193° South 248 285 10,500 750 Level FlightAware ADS-B (KPFC)
Wed 02:28:59 PM 45.3091 -125.1332 193° South 201 231 11,400 507 Climbing FlightAware ADS-B (KPFC)
Wed 02:29:36 PM 45.2735 -125.1438 191° South 214 246 11,100 -714 Descending FlightAware ADS-B (KPFC)
Wed 02:30:23 PM 45.2239 -125.1557 190° South 234 269 10,400 -732 Descending FlightAware ADS-B (KPFC)
Wed 02:30:58 PM 45.1880 -125.1661 192° South 217 250 10,100 -395 Descending FlightAware ADS-B (KPFC)
Wed 02:31:39 PM 45.1476 -125.1786 193° South 217 250 9,900 -197 Descending FlightAware ADS-B (KPFC)
Wed 02:31:59 PM 45.1277 -125.1848 192° South 218 251 9,900 207 Level FlightAware ADS-B (KPFC)
Wed 02:33:06 PM 45.0650 -125.2041 193° South 196 226 10,200 214 Climbing FlightAware ADS-B (KPFC)
Wed 02:33:51 PM 45.0229 -125.2163 191° South 196 226 10,300 222 Climbing FlightAware ADS-B (KPFC)
Wed 02:34:27 PM 44.9906 -125.2239 189° South 184 212 10,500 158 Climbing FlightAware ADS-B (KPFC)
Wed 02:35:07 PM 44.9562 -125.2305 188° South 180 207 10,500 -167 Level FlightAware ADS-B (KPFC)
Wed 02:35:39 PM 44.9280 -125.2368 190° South 196 226 10,300 -281 Descending FlightAware ADS-B (KPFC)
Wed 02:36:11 PM 44.8971 -125.2450 192° South 211 243 10,200 -250 Descending FlightAware ADS-B (KPFC)
Wed 02:36:51 PM 44.8587 -125.2573 194° South 217 250 10,000 -150 Descending FlightAware ADS-B (KPFC)
Wed 02:37:31 PM 44.8193 -125.2725 197° South 218 251 10,000  Level FlightAware ADS-B (KPFC)
Wed 02:38:06 PM 44.7855 -125.2872 197° South 217 250 10,000 -250 Level FlightAware ADS-B (KPFC)
Wed 02:38:43 PM 44.7503 -125.3018 197° South 207 238 9,700 -740 Descending FlightAware ADS-B (KPFC)
Wed 02:39:19 PM 44.7158 -125.3154 195° South 216 249 9,100 -640 Descending FlightAware ADS-B (KPFC)
Wed 02:39:58 PM 44.6800 -125.3236 173° South 199 229 8,900 -160 Descending FlightAware ADS-B (KPFC)
Wed 02:40:34 PM 44.6523 -125.3001 123° Southeast 189 217 8,900  Level FlightAware ADS-B (KPFC)
Wed 02:40:50 PM 44.6481 -125.2817 91° East 184 212 8,900  Level FlightAware ADS-B (KPFC)
Wed 02:41:11 PM 44.6523 -125.2588 61° Northeast 171 197 8,900  Level FlightAware ADS-B (KPFC)
Wed 02:41:46 PM 44.6696 -125.2271 54° Northeast 168 193 8,900 -79 Level FlightAware ADS-B (KPFC)
Wed 02:42:27 PM 44.6894 -125.1913 54° Northeast 168 193 8,800 -81 Descending FlightAware ADS-B (KPFC)
Wed 02:43:00 PM 44.7055 -125.1622 54° Northeast 168 193 8,800  Level FlightAware ADS-B (KPFC)
Wed 02:43:15 PM 44.7133 -125.1483 54° Northeast 168 193 8,800  Level FlightAware ADS-B (KPFC)
Wed 02:43:39 PM 44.7250 -125.1277 53° Northeast 169 194 8,800  Level FlightAware ADS-B (KPFC)
Wed 02:44:12 PM 44.7417 -125.0990 53° Northeast 168 193 8,800  Level FlightAware ADS-B (KPFC)
Wed 02:44:31 PM 44.7518 -125.0820 50° Northeast 173 199 8,800  Level FlightAware ADS-B (KPFC)
Wed 02:44:50 PM 44.7612 -125.0663 50° Northeast 172 198 8,800  Level FlightAware ADS-B (KPFC)
Wed 02:45:23 PM 44.7787 -125.0383 48° Northeast 171 197 8,800  Level FlightAware ADS-B (KPFC)
Wed 02:45:43 PM 44.7893 -125.0221 47° Northeast 169 194 8,800  Level FlightAware ADS-B (KPFC)
Wed 02:46:03 PM 44.7997 -125.0066 46° Northeast 169 194 8,800  Level FlightAware ADS-B (KPFC)
Wed 02:46:31 PM 44.8151 -124.9847 46° Northeast 162 186 8,800 113 Level FlightAware ADS-B (KPFC)
Wed 02:46:56 PM 44.8294 -124.9656 43° Northeast 181 208 8,900 1,395 Climbing FlightAware ADS-B (KPFC)
Wed 02:47:14 PM 44.8407 -124.9512 42° Northeast 171 197 9,800 1,731 Climbing FlightAware ADS-B (KPFC)
Wed 02:47:48 PM 44.8596 -124.9278 44° Northeast 158 182 10,400 -250 Climbing FlightAware ADS-B (KPFC)
Wed 02:48:26 PM 44.8818 -124.8994 40° Northeast 175 201 9,500 -1,161 Descending FlightAware ADS-B (KPFC)
Wed 02:48:50 PM 44.8980 -124.8866 18° North 152 175 9,200 -566 Descending FlightAware ADS-B (KPFC)
Wed 02:49:19 PM 44.9189 -124.8774 18° North 158 182 9,000 -250 Descending FlightAware ADS-B (KPFC)
Wed 02:49:38 PM 44.9329 -124.8715 17° North 156 180 9,000  Level FlightAware ADS-B (KPFC)
Wed 02:49:55 PM 44.9454 -124.8667 15° North 156 180 9,000  Level FlightAware ADS-B (KPFC)
Wed 02:50:15 PM 44.9595 -124.8616 15° North 156 180 9,000  Level FlightAware ADS-B (KPFC)
Wed 02:50:30 PM 44.9707 -124.8574 15° North 165 190 9,000  Level FlightAware ADS-B (KPFC)
Wed 02:50:58 PM 44.9916 -124.8497 14° North 165 190 9,000 1,574 Level FlightAware ADS-B (KPFC)
Wed 02:51:31 PM 45.0149 -124.8413 14° North 121 139 10,600 1,135 Climbing FlightAware ADS-B (KPFC)
Wed 02:52:12 PM 45.0414 -124.8333 11° North 151 174 10,400 -66 Descending FlightAware ADS-B (KPFC)
Wed 02:53:02 PM 45.0793 -124.8263 North 163 188 10,500 58 Climbing FlightAware ADS-B (KPFC)
Wed 02:53:56 PM 45.1194 -124.8242 North 159 183 10,500 64 Level FlightAware ADS-B (KPFC)
Wed 02:54:36 PM 45.1490 -124.8241 359° North 162 186 10,600 68 Climbing FlightAware ADS-B (KPFC)
Wed 02:55:24 PM 45.1858 -124.8255 359° North 164 189 10,600 -171 Level FlightAware ADS-B (KPFC)
Wed 02:55:46 PM 45.2022 -124.8257 North 164 189 10,400 -762 Descending FlightAware ADS-B (KPFC)
Wed 02:56:27 PM 45.2328 -124.8255 360° North 161 185 9,800 -871 Descending FlightAware ADS-B (KPFC)
Wed 02:56:48 PM 45.2484 -124.8257 359° North 177 204 9,500 931 Descending FlightAware ADS-B (KPFC)
Wed 02:57:25 PM 45.2779 -124.8272 357° North 149 171 10,700 923 Climbing FlightAware ADS-B (KPFC)
Wed 02:58:06 PM 45.3085 -124.8297 357° North 163 188 10,700 -64 Level FlightAware ADS-B (KPFC)
Wed 02:58:59 PM 45.3483 -124.8335 354° North 162 186 10,600 -452 Descending FlightAware ADS-B (KPFC)
Wed 02:59:39 PM 45.3782 -124.8374 356° North 165 190 10,000 -1,000 Descending FlightAware ADS-B (KPFC)
Wed 03:00:11 PM 45.4025 -124.8409 353° North 166 191 9,400 -1,059 Descending FlightAware ADS-B (KPFC)
Wed 03:00:30 PM 45.4171 -124.8437 351° North 163 188 9,100 -1,050 Descending FlightAware ADS-B (KPFC)
Wed 03:00:51 PM 45.4336 -124.8476 349° North 166 191 8,700 -947 Descending FlightAware ADS-B (KPFC)
Wed 03:01:27 PM 45.4618 -124.8556 347° North 164 189 8,200 -842 Descending FlightAware ADS-B (KPFC)
Wed 03:01:48 PM 45.4775 -124.8606 347° North 165 190 7,900 300 Descending FlightAware ADS-B (KPFC)
Wed 03:02:27 PM 45.5084 -124.8699 350° North 152 175 8,500 1,600 Climbing FlightAware ADS-B (KPFC)
Wed 03:02:48 PM 45.5198 -124.8727 349° North 113 130 9,500 1,200 Climbing FlightAware ADS-B (KPFC)
Wed 03:03:07 PM 45.5327 -124.8760 349° North 148 170 9,300 500 Descending FlightAware ADS-B (KPFC)
Wed 03:04:00 PM 45.5699 -124.8862 349° North 146 168 10,100 581 Climbing FlightAware ADS-B (KPFC)
Wed 03:04:40 PM 45.5983 -124.8922 355° North 144 166 10,200 423 Climbing FlightAware ADS-B (KPFC)
Wed 03:05:11 PM 45.6203 -124.8958 352° North 149 171 10,600 507 Climbing FlightAware ADS-B (KPFC)
Wed 03:05:51 PM 45.6481 -124.9003 354° North 151 174 10,800 411 Climbing FlightAware ADS-B (KPFC)
Wed 03:06:24 PM 45.6704 -124.9034 354° North 145 167 11,100 566 Climbing FlightAware ADS-B (KPFC)
Wed 03:06:44 PM 45.6844 -124.9005 30° Northeast 151 174 11,300 750 Climbing FlightAware ADS-B (KPFC)
Wed 03:07:04 PM 45.6934 -124.8839 73° East 167 192 11,600 706 Climbing FlightAware ADS-B (KPFC)
Wed 03:07:35 PM 45.6868 -124.8494 133° Southeast 189 217 11,900 346 Climbing FlightAware ADS-B (KPFC)
Wed 03:07:56 PM 45.6713 -124.8372 160° South 192 221 11,900 158 Level FlightAware ADS-B (KPFC)
Wed 03:08:51 PM 45.6249 -124.8135 161° South 189 217 12,100 625 Climbing FlightAware ADS-B (KPFC)
Wed 03:09:32 PM 45.5914 -124.7971 161° South 191 220 12,900 83 Climbing FlightAware ADS-B (KPFC)
Wed 03:10:03 PM 45.5646 -124.7847 163° South 190 219 12,200 -1,286 Descending FlightAware ADS-B (KPFC)
Wed 03:10:42 PM 45.5334 -124.7709 162° South 151 174 11,400 -1,705 Descending FlightAware ADS-B (KPFC)
Wed 03:11:31 PM 45.4974 -124.7557 164° South 170 196 9,700 -1,286 Descending FlightAware ADS-B (KPFC)
Wed 03:11:52 PM 45.4812 -124.7492 164° South 173 199 9,900 1,355 Climbing FlightAware ADS-B (KPFC)
Wed 03:13:04 PM 45.4233 -124.7201 157° South 181 208 11,800 1,465 Climbing FlightAware ADS-B (KPFC)
Wed 03:13:59 PM 45.3784 -124.6911 155° Southeast 194 223 13,000 1,000 Climbing FlightAware ADS-B (KPFC)
Wed 03:14:40 PM 45.3440 -124.6752 178° South 194 223 13,400 247 Climbing FlightAware ADS-B (KPFC)
Wed 03:15:12 PM 45.3155 -124.6745 179° South 178 205 13,300 -1,167 Descending FlightAware ADS-B (KPFC)
Wed 03:15:52 PM 45.2805 -124.6738 179° South 193 222 12,000 -1,840 Descending FlightAware ADS-B (KPFC)
Wed 03:16:27 PM 45.2490 -124.6724 177° South 180 207 11,000 -1,378 Descending FlightAware ADS-B (KPFC)
Wed 03:17:06 PM 45.2152 -124.6694 176° South 182 209 10,300 474 Descending FlightAware ADS-B (KPFC)
Wed 03:17:43 PM 45.1841 -124.6668 177° South 176 203 11,600 1,870 Climbing FlightAware ADS-B (KPFC)
Wed 03:18:23 PM 45.1500 -124.6691 196° South 187 215 12,700 1,575 Climbing FlightAware ADS-B (KPFC)
Wed 03:19:03 PM 45.1164 -124.6852 199° South 190 219 13,700 532 Climbing FlightAware ADS-B (KPFC)
Wed 03:19:42 PM 45.0838 -124.7007 199° South 189 217 13,400 -1,083 Descending FlightAware ADS-B (KPFC)
Wed 03:20:15 PM 45.0559 -124.7135 198° South 190 219 12,400 -1,459 Descending FlightAware ADS-B (KPFC)
Wed 03:20:56 PM 45.0262 -124.7262 197° South 153 176 11,600 -1,067 Descending FlightAware ADS-B (KPFC)
Wed 03:21:45 PM 44.9880 -124.7412 196° South 171 197 10,800 561 Descending FlightAware ADS-B (KPFC)
Wed 03:22:43 PM 44.9383 -124.7624 197° South 199 229 12,600 1,939 Climbing FlightAware ADS-B (KPFC)
Wed 03:23:24 PM 44.9021 -124.7762 194° South 203 234 14,000 845 Climbing FlightAware ADS-B (KPFC)
Wed 03:23:54 PM 44.8748 -124.7857 194° South 199 229 13,600 -1,083 Descending FlightAware ADS-B (KPFC)
Wed 03:24:36 PM 44.8380 -124.7982 194° South 185 213 12,700 -1,233 Descending FlightAware ADS-B (KPFC)
Wed 03:25:07 PM 44.8113 -124.8068 193° South 170 196 12,100 -1,565 Descending FlightAware ADS-B (KPFC)
Wed 03:25:45 PM 44.7837 -124.8145 192° South 165 190 10,900 -692 Descending FlightAware ADS-B (KPFC)
Wed 03:26:51 PM 44.7287 -124.8300 207° Southwest 184 212 10,900 558 Level FlightAware ADS-B (KPFC)
Wed 03:27:11 PM 44.7151 -124.8449 230° Southwest 180 207 11,700 2,235 Climbing FlightAware ADS-B (KPFC)
Wed 03:27:42 PM 44.7031 -124.8776 260° West 178 205 12,800 1,833 Climbing FlightAware ADS-B (KPFC)
Wed 03:28:23 PM 44.7074 -124.9242 295° West 185 213 13,900 904 Climbing FlightAware ADS-B (KPFC)
Wed 03:28:55 PM 44.7263 -124.9506 327° Northwest 175 201 13,900 -652 Level FlightAware ADS-B (KPFC)
Wed 03:29:55 PM 44.7680 -124.9844 331° Northwest 168 193 12,900 -1,125 Descending FlightAware ADS-B (KPFC)
Wed 03:30:31 PM 44.7919 -125.0024 332° Northwest 164 189 12,100 -1,630 Descending FlightAware ADS-B (KPFC)
Wed 03:31:27 PM 44.8242 -125.0284 327° Northwest 173 199 10,400 -947 Descending FlightAware ADS-B (KPFC)
Wed 03:32:06 PM 44.8495 -125.0515 327° Northwest 158 182 10,600 978 Climbing FlightAware ADS-B (KPFC)
Wed 03:32:59 PM 44.8869 -125.0839 327° Northwest 191 220 11,900 1,886 Climbing FlightAware ADS-B (KPFC)
Wed 03:33:51 PM 44.9307 -125.1143 339° North 209 241 13,900 1,355 Climbing FlightAware ADS-B (KPFC)
Wed 03:34:32 PM 44.9673 -125.1351 337° Northwest 211 243 14,000 158 Climbing FlightAware ADS-B (KPFC)
Wed 03:35:07 PM 44.9968 -125.1537 334° Northwest 177 204 14,100 -411 Climbing FlightAware ADS-B (KPFC)
Wed 03:35:45 PM 45.0247 -125.1719 334° Northwest 163 188 13,500 -1,114 Descending FlightAware ADS-B (KPFC)
Wed 03:36:17 PM 45.0479 -125.1869 336° Northwest 164 189 12,800 -1,216 Descending FlightAware ADS-B (KPFC)
Wed 03:36:59 PM 45.0770 -125.2041 339° North 154 177 12,000 -1,533 Descending FlightAware ADS-B (KPFC)
Wed 03:37:47 PM 45.1066 -125.2203 338° Northwest 157 181 10,500 -809 Descending FlightAware ADS-B (KPFC)
Wed 03:38:28 PM 45.1355 -125.2360 341° North 175 201 10,800 1,350 Climbing FlightAware ADS-B (KPFC)
Wed 03:39:07 PM 45.1674 -125.2503 342° North 187 215 12,300 2,286 Climbing FlightAware ADS-B (KPFC)
Wed 03:39:52 PM 45.2053 -125.2649 348° North 198 228 14,000 1,342 Climbing FlightAware ADS-B (KPFC)
Wed 03:40:23 PM 45.2332 -125.2728 349° North 184 212 14,000 -514 Level FlightAware ADS-B (KPFC)
Wed 03:41:02 PM 45.2662 -125.2820 347° North 170 196 13,400 -1,059 Descending FlightAware ADS-B (KPFC)
Wed 03:41:48 PM 45.3023 -125.2934 347° North 169 194 12,500 -1,085 Descending FlightAware ADS-B (KPFC)
Wed 03:42:36 PM 45.3343 -125.3052 343° North 119 137 11,700 -1,379 Descending FlightAware ADS-B (KPFC)
Wed 03:43:15 PM 45.3645 -125.3192 340° North 172 198 10,500 522 Descending FlightAware ADS-B (KPFC)
Wed 03:44:08 PM 45.4059 -125.3101 48° Northeast 198 228 12,500 2,258 Climbing FlightAware ADS-B (KPFC)
Wed 03:44:48 PM 45.4326 -125.2713 46° Northeast 209 241 14,000 900 Climbing FlightAware ADS-B (KPFC)
Wed 03:45:28 PM 45.4589 -125.2336 47° Northeast 188 216 13,700 -825 Descending FlightAware ADS-B (KPFC)
Wed 03:46:08 PM 45.4839 -125.1980 47° Northeast 188 216 12,900 -1,215 Descending FlightAware ADS-B (KPFC)
Wed 03:46:47 PM 45.5075 -125.1638 46° Northeast 185 213 12,100 -911 Descending FlightAware ADS-B (KPFC)
Wed 03:47:27 PM 45.5300 -125.1311 47° Northeast 149 171 11,700 -1,161 Descending FlightAware ADS-B (KPFC)
Wed 03:48:20 PM 45.5593 -125.0912 42° Northeast 193 222 10,300 56 Descending FlightAware ADS-B (KPFC)
Wed 03:49:15 PM 45.5957 -125.0415 45° Northeast 180 207 11,800 1,011 Climbing FlightAware ADS-B (KPFC)
Wed 03:49:55 PM 45.6223 -125.0059 44° Northeast 210 242 11,900 71 Climbing FlightAware ADS-B (KPFC)
Wed 03:50:39 PM 45.6554 -124.9619 43° Northeast 222 255 11,900  Level FlightAware ADS-B (KPFC)
Wed 03:51:20 PM 45.6855 -124.9217 43° Northeast 220 253 11,900  Level FlightAware ADS-B (KPFC)
Wed 03:51:59 PM 45.7148 -124.8825 43° Northeast 219 252 11,900  Level FlightAware ADS-B (KPFC)
Wed 03:52:19 PM 45.7271 -124.8605 63° Northeast 220 253 11,900  Level FlightAware ADS-B (KPFC)
Wed 03:52:39 PM 45.7302 -124.8310 95° East 232 267 11,900  Level FlightAware ADS-B (KPFC)
Wed 03:53:12 PM 45.7103 -124.7894 145° Southeast 240 276 11,900  Level FlightAware ADS-B (KPFC)
Wed 03:53:51 PM 45.6735 -124.7559 147° Southeast 234 269 11,900  Level FlightAware ADS-B (KPFC)
Wed 03:54:22 PM 45.6436 -124.7295 147° Southeast 234 269 11,900  Level FlightAware ADS-B (KPFC)
Wed 03:55:04 PM 45.6046 -124.6949 147° Southeast 234 269 11,900  Level FlightAware ADS-B (KPFC)
Wed 03:55:36 PM 45.5744 -124.6681 147° Southeast 234 269 11,900  Level FlightAware ADS-B (KPFC)
Wed 03:56:16 PM 45.5368 -124.6348 147° Southeast 235 270 11,900  Level FlightAware ADS-B (KPFC)
Wed 03:56:47 PM 45.5066 -124.6081 150° Southeast 243 280 11,900  Level FlightAware ADS-B (KPFC)
Wed 03:57:08 PM 45.4849 -124.5985 173° South 242 278 11,900  Level FlightAware ADS-B (KPFC)
Wed 03:58:04 PM 45.4223 -124.5918 176° South 242 278 11,900  Level FlightAware ADS-B (KPFC)
Wed 03:59:20 PM 45.3376 -124.5839 176° South 243 280 11,900  Level FlightAware ADS-B (KPFC)
Wed 03:59:57 PM 45.2953 -124.5800 176° South 242 278 11,900  Level FlightAware ADS-B (KPFC)
Wed 04:00:38 PM 45.2495 -124.5757 176° South 242 278 11,900  Level FlightAware ADS-B (KPFC)
Wed 04:01:16 PM 45.2074 -124.5716 176° South 241 277 11,900  Level FlightAware ADS-B (KPFC)
Wed 04:01:57 PM 45.1624 -124.5669 176° South 241 277 11,900  Level FlightAware ADS-B (KPFC)
Wed 04:02:37 PM 45.1183 -124.5622 176° South 240 276 11,900  Level FlightAware ADS-B (KPFC)
Wed 04:03:22 PM 45.0673 -124.5566 176° South 242 278 11,900  Level FlightAware ADS-B (KPFC)
Wed 04:04:03 PM 45.0215 -124.5515 176° South 242 278 11,900  Level FlightAware ADS-B (KPFC)
Wed 04:04:46 PM 44.9746 -124.5467 178° South 241 277 11,900  Level FlightAware ADS-B (KPFC)
Wed 04:05:01 PM 44.9577 -124.5478 196° South 232 267 11,900  Level FlightAware ADS-B (KPFC)
Wed 04:05:25 PM 44.9398 -124.5732 260° West 215 247 11,900  Level FlightAware ADS-B (KPFC)
Wed 04:05:51 PM 44.9447 -124.6047 292° West 176 203 11,900  Level FlightAware ADS-B (KPFC)
Wed 04:06:23 PM 44.9542 -124.6378 289° West 164 189 11,900  Level FlightAware ADS-B (KPFC)
Wed 04:07:11 PM 44.9672 -124.6866 287° West 165 190 11,900 -87 Level FlightAware ADS-B (KPFC)
Wed 04:07:32 PM 44.9678 -124.7093 242° Southwest 174 200 11,800 -585 Descending FlightAware ADS-B (KPFC)
Wed 04:07:52 PM 44.9511 -124.7106 164° South 188 216 11,500 -146 Descending FlightAware ADS-B (KPFC)
Wed 04:08:13 PM 44.9329 -124.7091 183° South 181 208 11,700 188 Climbing FlightAware ADS-B (KPFC)
Wed 04:08:56 PM 44.8952 -124.7132 186° South 182 209 11,700  Level FlightAware ADS-B (KPFC)
Wed 04:09:14 PM 44.8796 -124.7148 171° South 183 211 11,700 -360 Level FlightAware ADS-B (KPFC)
Wed 04:09:46 PM 44.8702 -124.6863 74° East 169 194 11,400 86 Descending FlightAware ADS-B (KPFC)
Wed 04:10:24 PM 44.8819 -124.6481 56° Northeast 174 200 11,800 387 Climbing FlightAware ADS-B (KPFC)
Wed 04:10:48 PM 44.8981 -124.6361 20° North 158 182 11,800  Level FlightAware ADS-B (KPFC)
Wed 04:11:22 PM 44.9223 -124.6244 17° North 166 191 11,800 -444 Level FlightAware ADS-B (KPFC)
Wed 04:11:42 PM 44.9343 -124.6320 276° West 172 198 11,400 -789 Descending FlightAware ADS-B (KPFC)
Wed 04:12:00 PM 44.9283 -124.6519 247° West 177 204 11,300 231 Descending FlightAware ADS-B (KPFC)
Wed 04:12:34 PM 44.9220 -124.6889 272° West 169 194 11,600 326 Climbing FlightAware ADS-B (KPFC)
Wed 04:13:32 PM 44.9232 -124.7525 271° West 170 196 11,800 138 Climbing FlightAware ADS-B (KPFC)
Wed 04:14:01 PM 44.9223 -124.7834 240° Southwest 173 199 11,800 -343 Level FlightAware ADS-B (KPFC)
Wed 04:14:07 PM 44.9178 -124.7883 204° Southwest 181 208 11,600 -146 Descending FlightAware ADS-B (KPFC)
Wed 04:14:42 PM 44.8884 -124.7778 168° South 181 208 11,700 179 Climbing FlightAware ADS-B (KPFC)
Wed 04:15:14 PM 44.8610 -124.7709 170° South 184 212 11,800 85 Climbing FlightAware ADS-B (KPFC)
Wed 04:15:53 PM 44.8264 -124.7623 162° South 185 213 11,800  Level FlightAware ADS-B (KPFC)
Wed 04:16:28 PM 44.8148 -124.7267 95° East 181 208 11,800  Level FlightAware ADS-B (KPFC)
Wed 04:17:10 PM 44.8105 -124.6772 96° East 184 212 11,800 -400 Level FlightAware ADS-B (KPFC)
Wed 04:17:43 PM 44.8242 -124.6591 332° Northwest 162 186 11,300 -240 Descending FlightAware ADS-B (KPFC)
Wed 04:18:25 PM 44.8520 -124.6804 329° Northwest 155 178 11,500 286 Climbing FlightAware ADS-B (KPFC)
Wed 04:19:07 PM 44.8792 -124.7031 327° Northwest 154 177 11,700 295 Climbing FlightAware ADS-B (KPFC)
Wed 04:19:26 PM 44.8927 -124.7101 352° North 162 186 11,800 143 Climbing FlightAware ADS-B (KPFC)
Wed 04:19:49 PM 44.9093 -124.7082 13° North 165 190 11,800  Level FlightAware ADS-B (KPFC)
Wed 04:20:26 PM 44.9372 -124.6992 12° North 165 190 11,800 71 Level FlightAware ADS-B (KPFC)
Wed 04:21:14 PM 44.9725 -124.6862 18° North 158 182 11,900 -86 Climbing FlightAware ADS-B (KPFC)
Wed 04:21:36 PM 44.9882 -124.6858 317° Northwest 156 180 11,700 -571 Descending FlightAware ADS-B (KPFC)
Wed 04:21:56 PM 44.9879 -124.7081 260° West 175 201 11,500 97 Descending FlightAware ADS-B (KPFC)
Wed 04:22:38 PM 44.9860 -124.7549 294° West 166 191 11,800 207 Climbing FlightAware ADS-B (KPFC)
Wed 04:23:23 PM 45.0029 -124.7961 300° West 158 182 11,800  Level FlightAware ADS-B (KPFC)
Wed 04:24:04 PM 45.0196 -124.8330 299° West 162 186 11,800  Level FlightAware ADS-B (KPFC)
Wed 04:24:43 PM 45.0347 -124.8695 299° West 165 190 11,800  Level FlightAware ADS-B (KPFC)
Wed 04:25:25 PM 45.0432 -124.9117 231° Southwest 159 183 11,800 55 Level FlightAware ADS-B (KPFC)
Wed 04:26:32 PM 45.0091 -124.9653 231° Southwest 177 204 11,900  Climbing FlightAware ADS-B (KPFC)
Wed 04:27:53 PM 44.9669 -125.0378 234° Southwest 168 193 11,800 -38 Descending FlightAware ADS-B (KPFC)
Wed 04:29:08 PM 44.9322 -125.1071 240° Southwest 169 194 11,800 -221 Level FlightAware ADS-B (KPFC)
Wed 04:30:09 PM 44.9067 -125.0963 95° East 187 215 11,300  Descending FlightAware ADS-B (KPFC)
Wed 04:30:51 PM 44.9019 -125.0450 96° East 187 215 11,800 326 Climbing FlightAware ADS-B (KPFC)
Wed 04:31:41 PM 44.8962 -124.9842 79° East 186 214 11,800  Level FlightAware ADS-B (KPFC)
Wed 04:32:01 PM 44.9058 -124.9675 32° Northeast 169 194 11,800 -75 Level FlightAware ADS-B (KPFC)
Wed 04:33:01 PM 44.9476 -124.9350 North 159 183 11,700 -296 Descending FlightAware ADS-B (KPFC)
Wed 04:33:22 PM 44.9528 -124.9526 263° West 161 185 11,400 56 Descending FlightAware ADS-B (KPFC)
Wed 04:34:49 PM 44.9423 -125.0442 263° West 161 185 11,800 151 Climbing FlightAware ADS-B (KPFC)
Wed 04:35:21 PM 44.9351 -125.0765 179° South 182 209 11,700 -68 Descending FlightAware ADS-B (KPFC)
Wed 04:36:17 PM 44.8890 -125.0606 165° South 188 216 11,700 69 Level FlightAware ADS-B (KPFC)
Wed 04:36:48 PM 44.8626 -125.0510 165° South 181 208 11,800  Climbing FlightAware ADS-B (KPFC)
Wed 04:37:28 PM 44.8287 -125.0370 163° South 190 219 11,700  Descending FlightAware ADS-B (KPFC)
Wed 04:38:00 PM 44.8209 -125.0028 96° East 175 201 11,800 169 Climbing FlightAware ADS-B (KPFC)
Wed 04:38:39 PM 44.8180 -124.9568 95° East 190 219 11,900  Climbing FlightAware ADS-B (KPFC)
Wed 04:39:12 PM 44.8154 -124.9157 95° East 190 219 11,800 -82 Descending FlightAware ADS-B (KPFC)
Wed 04:39:52 PM 44.8224 -124.8704 58° Northeast 177 204 11,800  Level FlightAware ADS-B (KPFC)
Wed 04:40:24 PM 44.8391 -124.8412 51° Northeast 179 206 11,800  Level FlightAware ADS-B (KPFC)
Wed 04:41:04 PM 44.8596 -124.8044 54° Northeast 174 200 11,800  Level FlightAware ADS-B (KPFC)
Wed 04:41:34 PM 44.8754 -124.7781 30° Northeast 166 191 11,800 -643 Level FlightAware ADS-B (KPFC)
Wed 04:42:00 PM 44.8868 -124.7904 271° West 179 206 11,200 -277 Descending FlightAware ADS-B (KPFC)
Wed 04:42:39 PM 44.8864 -124.8342 270° West 171 197 11,500 480 Climbing FlightAware ADS-B (KPFC)
Wed 04:43:15 PM 44.8855 -124.8743 270° West 172 198 11,800 234 Climbing FlightAware ADS-B (KPFC)
Wed 04:43:56 PM 44.8834 -124.9208 269° West 173 199 11,800  Level FlightAware ADS-B (KPFC)
Wed 04:44:44 PM 44.8802 -124.9727 265° West 166 191 11,800  Level FlightAware ADS-B (KPFC)
Wed 04:45:23 PM 44.8772 -125.0147 264° West 168 193 11,800  Level FlightAware ADS-B (KPFC)
Wed 04:45:53 PM 44.8747 -125.0473 264° West 166 191 11,800  Level FlightAware ADS-B (KPFC)
Wed 04:46:41 PM 44.8707 -125.0994 264° West 167 192 11,800 -240 Level FlightAware ADS-B (KPFC)
Wed 04:47:08 PM 44.8691 -125.1280 277° West 165 190 11,500 -1,102 Descending FlightAware ADS-B (KPFC)
Wed 04:47:30 PM 44.8758 -125.1493 312° West 169 194 10,900 -1,846 Descending FlightAware ADS-B (KPFC)
Wed 04:47:47 PM 44.8889 -125.1551 39° Northeast 166 191 10,300 -964 Descending FlightAware ADS-B (KPFC)
Wed 04:48:26 PM 44.9130 -125.1311 39° Northeast 166 191 10,000 -508 Descending FlightAware ADS-B (KPFC)
Wed 04:48:46 PM 44.9249 -125.1174 40° Northeast 166 191 9,800 -190 Descending FlightAware ADS-B (KPFC)
Wed 04:49:29 PM 44.9497 -125.0868 43° Northeast 159 183 9,800 -73 Level FlightAware ADS-B (KPFC)
Wed 04:50:08 PM 44.9726 -125.0602 33° Northeast 156 180 9,700 -214 Descending FlightAware ADS-B (KPFC)
Wed 04:50:25 PM 44.9850 -125.0595 334° Northwest 163 188 9,600 -214 Descending FlightAware ADS-B (KPFC)
Wed 04:51:04 PM 44.9936 -125.0994 252° West 164 189 9,500 105 Descending FlightAware ADS-B (KPFC)
Wed 04:51:22 PM 44.9874 -125.1142 225° Southwest 161 185 9,700 87 Climbing FlightAware ADS-B (KPFC)
Wed 04:52:13 PM 44.9591 -125.1522 224° Southwest 159 183 9,600  Descending FlightAware ADS-B (KPFC)
Wed 04:53:12 PM 44.9153 -125.1598 170° South 164 189 9,700 50 Climbing FlightAware ADS-B (KPFC)
Wed 04:54:13 PM 44.8676 -125.1477 167° South 164 189 9,700  Level FlightAware ADS-B (KPFC)
Wed 04:55:32 PM 44.8062 -125.1256 167° South 165 190 9,700 -350 Level FlightAware ADS-B (KPFC)
Wed 04:55:56 PM 44.7946 -125.1027 99° East 213 245 9,100 171 Descending FlightAware ADS-B (KPFC)
Wed 04:56:42 PM 44.8090 -125.0574 37° Northeast 142 163 9,900 500 Climbing FlightAware ADS-B (KPFC)
Wed 04:57:08 PM 44.8259 -125.0440 28° Northeast 168 193 9,700 -164 Descending FlightAware ADS-B (KPFC)
Wed 04:57:55 PM 44.8587 -125.0215 26° Northeast 161 185 9,700  Level FlightAware ADS-B (KPFC)
Wed 04:58:14 PM 44.8726 -125.0128 25° Northeast 158 182 9,700  Level FlightAware ADS-B (KPFC)
Wed 04:58:34 PM 44.8861 -125.0047 23° Northeast 163 188 9,700  Level FlightAware ADS-B (KPFC)
Wed 04:59:07 PM 44.9095 -124.9925 20° North 155 178 9,700  Level FlightAware ADS-B (KPFC)
Wed 04:59:26 PM 44.9233 -124.9865 17° North 156 180 9,700 -150 Level FlightAware ADS-B (KPFC)
Wed 04:59:47 PM 44.9383 -124.9791 32° Northeast 169 194 9,600 -1,200 Descending FlightAware ADS-B (KPFC)
Wed 05:00:06 PM 44.9463 -124.9582 71° East 198 228 8,900 -769 Descending FlightAware ADS-B (KPFC)
Wed 05:00:26 PM 44.9424 -124.9320 115° Southeast 196 226 9,100 1,364 Climbing FlightAware ADS-B (KPFC)
Wed 05:00:50 PM 44.9296 -124.9134 150° Southeast 150 173 9,900 667 Climbing FlightAware ADS-B (KPFC)
Wed 05:01:11 PM 44.9159 -124.9041 153° Southeast 166 191 9,600 -462 Descending FlightAware ADS-B (KPFC)
Wed 05:01:29 PM 44.9022 -124.8948 153° Southeast 169 194 9,600 -154 Level FlightAware ADS-B (KPFC)
Wed 05:01:50 PM 44.8875 -124.8845 152° Southeast 170 196 9,500 -146 Descending FlightAware ADS-B (KPFC)
Wed 05:02:10 PM 44.8729 -124.8736 150° Southeast 172 198 9,500 267 Level FlightAware ADS-B (KPFC)
Wed 05:02:35 PM 44.8525 -124.8644 177° South 193 222 9,700 409 Climbing FlightAware ADS-B (KPFC)
Wed 05:02:54 PM 44.8365 -124.8753 214° Southwest 194 223 9,800 300 Climbing FlightAware ADS-B (KPFC)
Wed 05:03:15 PM 44.8210 -124.8895 213° Southwest 199 229 9,900 154 Climbing FlightAware ADS-B (KPFC)
Wed 05:03:33 PM 44.8068 -124.9025 213° Southwest 197 227 9,900  Level FlightAware ADS-B (KPFC)
Wed 05:03:55 PM 44.7903 -124.9174 213° Southwest 196 226 9,900 -92 Level FlightAware ADS-B (KPFC)
Wed 05:04:38 PM 44.7571 -124.9469 213° Southwest 195 224 9,800  Descending FlightAware ADS-B (KPFC)
Wed 05:04:56 PM 44.7425 -124.9596 213° Southwest 193 222 9,900  Climbing FlightAware ADS-B (KPFC)
Wed 05:05:36 PM 44.7114 -124.9859 213° Southwest 195 224 9,800 -207 Descending FlightAware ADS-B (KPFC)
Wed 05:05:54 PM 44.6967 -124.9988 212° Southwest 207 238 9,700 -143 Descending FlightAware ADS-B (KPFC)
Wed 05:06:18 PM 44.6773 -125.0172 215° Southwest 221 254 9,700 107 Level FlightAware ADS-B (KPFC)
Wed 05:06:50 PM 44.6496 -125.0448 216° Southwest 235 270 9,800 235 Climbing FlightAware ADS-B (KPFC)
Wed 05:07:09 PM 44.6334 -125.0612 216° Southwest 236 272 9,900 150 Climbing FlightAware ADS-B (KPFC)
Wed 05:07:30 PM 44.6146 -125.0806 218° Southwest 229 264 9,900  Level FlightAware ADS-B (KPFC)
Wed 05:08:03 PM 44.5866 -125.1109 220° Southwest 228 262 9,900 -120 Level FlightAware ADS-B (KPFC)
Wed 05:08:20 PM 44.5716 -125.1279 219° Southwest 235 270 9,800 -167 Descending FlightAware ADS-B (KPFC)
Wed 05:08:39 PM 44.5627 -125.1522 265° West 227 261 9,800  Level FlightAware ADS-B (KPFC)
Wed 05:09:15 PM 44.5859 -125.1851 354° North 226 260 9,800 107 Level FlightAware ADS-B (KPFC)
Wed 05:09:35 PM 44.6073 -125.1861 359° North 227 261 9,900 150 Climbing FlightAware ADS-B (KPFC)
Wed 05:09:55 PM 44.6283 -125.1869 358° North 226 260 9,900  Level FlightAware ADS-B (KPFC)
Wed 05:10:24 PM 44.6589 -125.1890 356° North 228 262 9,900  Level FlightAware ADS-B (KPFC)
Wed 05:10:40 PM 44.6757 -125.1908 355° North 227 261 9,900  Level FlightAware ADS-B (KPFC)
Wed 05:11:07 PM 44.7032 -125.1945 353° North 228 262 9,900  Level FlightAware ADS-B (KPFC)
Wed 05:11:40 PM 44.7373 -125.2006 353° North 209 241 9,900  Level FlightAware ADS-B (KPFC)
Wed 05:12:02 PM 44.7572 -125.2041 353° North 194 223 9,900  Level FlightAware ADS-B (KPFC)
Wed 05:12:23 PM 44.7750 -125.2075 351° North 178 205 9,900  Level FlightAware ADS-B (KPFC)
Wed 05:12:41 PM 44.7907 -125.2111 350° North 179 206 9,900  Level FlightAware ADS-B (KPFC)
Wed 05:12:59 PM 44.8058 -125.2149 350° North 179 206 9,900  Level FlightAware ADS-B (KPFC)
Wed 05:13:33 PM 44.8346 -125.2216 351° North 197 227 9,900 -952 Level FlightAware ADS-B (KPFC)
Wed 05:14:02 PM 44.8639 -125.2283 350° North 248 285 8,900 -411 Descending FlightAware ADS-B (KPFC)
Wed 05:14:46 PM 44.9124 -125.2432 347° North 229 264 9,400 609 Climbing FlightAware ADS-B (KPFC)
Wed 05:15:11 PM 44.9376 -125.2507 349° North 228 262 9,600 98 Climbing FlightAware ADS-B (KPFC)
Wed 05:15:47 PM 44.9751 -125.2601 349° North 229 264 9,500 -107 Descending FlightAware ADS-B (KPFC)
Wed 05:16:07 PM 44.9957 -125.2660 348° North 229 264 9,500  Level FlightAware ADS-B (KPFC)
Wed 05:16:59 PM 45.0493 -125.2864 343° North 220 253 9,500  Level FlightAware ADS-B (KPFC)
Wed 05:17:23 PM 45.0730 -125.2969 341° North 222 255 9,500  Level FlightAware ADS-B (KPFC)
Wed 05:17:43 PM 45.0932 -125.3066 340° North 225 259 9,500  Level FlightAware ADS-B (KPFC)
Wed 05:18:15 PM 45.1251 -125.3236 337° Northwest 225 259 9,500  Level FlightAware ADS-B (KPFC)
Wed 05:18:34 PM 45.1446 -125.3346 338° Northwest 230 265 9,500  Level FlightAware ADS-B (KPFC)
Wed 05:18:51 PM 45.1611 -125.3438 338° Northwest 230 265 9,500 453 Level FlightAware ADS-B (KPFC)
Wed 05:19:27 PM 45.1981 -125.3588 347° North 230 265 9,900 324 Climbing FlightAware ADS-B (KPFC)
Wed 05:20:05 PM 45.2348 -125.3569 North 194 223 9,900  Level FlightAware ADS-B (KPFC)
Wed 05:20:38 PM 45.2611 -125.3543 North 164 189 9,900 -56 Level FlightAware ADS-B (KPFC)
Wed 05:21:53 PM 45.3185 -125.3464 North 164 189 9,800 -66 Descending FlightAware ADS-B (KPFC)
Wed 05:22:09 PM 45.3306 -125.3445 North 163 188 9,800 -171 Level FlightAware ADS-B (KPFC)
Wed 05:23:03 PM 45.3706 -125.3354 47° Northeast 167 192 9,600  Descending FlightAware ADS-B (KPFC)
Wed 05:23:31 PM 45.3844 -125.3128 54° Northeast 160 184 9,800 261 Climbing FlightAware ADS-B (KPFC)
Wed 05:23:49 PM 45.3934 -125.2969 54° Northeast 162 186 9,800  Level FlightAware ADS-B (KPFC)
Wed 05:24:11 PM 45.4035 -125.2788 54° Northeast 163 188 9,800  Level FlightAware ADS-B (KPFC)
Wed 05:24:31 PM 45.4131 -125.2615 54° Northeast 162 186 9,800  Level FlightAware ADS-B (KPFC)
Wed 05:24:50 PM 45.4223 -125.2449 51° Northeast 163 188 9,800 308 Level FlightAware ADS-B (KPFC)
Wed 05:25:10 PM 45.4315 -125.2290 52° Northeast 140 161 10,000 113 Climbing FlightAware ADS-B (KPFC)
Wed 05:25:43 PM 45.4460 -125.2046 51° Northeast 156 180 9,900 83 Descending FlightAware ADS-B (KPFC)
Wed 05:26:22 PM 45.4647 -125.1723 50° Northeast 173 199 10,100  Climbing FlightAware ADS-B (KPFC)
Wed 05:26:58 PM 45.4838 -125.1405 49° Northeast 177 204 9,900 -214 Descending FlightAware ADS-B (KPFC)
Wed 05:27:18 PM 45.4943 -125.1233 49° Northeast 176 203 9,900  Level FlightAware ADS-B (KPFC)
Wed 05:27:39 PM 45.5051 -125.1057 51° Northeast 162 186 9,900  Level FlightAware ADS-B (KPFC)
Wed 05:27:58 PM 45.5150 -125.0895 51° Northeast 162 186 9,900  Level FlightAware ADS-B (KPFC)
Wed 05:28:19 PM 45.5253 -125.0723 52° Northeast 162 186 9,900  Level FlightAware ADS-B (KPFC)
Wed 05:28:38 PM 45.5350 -125.0561 52° Northeast 162 186 9,900 -300 Level FlightAware ADS-B (KPFC)
Wed 05:28:59 PM 45.5382 -125.0346 111° Southeast 179 206 9,700 -214 Descending FlightAware ADS-B (KPFC)
Wed 05:29:34 PM 45.5131 -125.0198 171° South 168 193 9,700 107 Level FlightAware ADS-B (KPFC)
Wed 05:29:55 PM 45.4964 -125.0164 171° South 167 192 9,800 293 Climbing FlightAware ADS-B (KPFC)
Wed 05:30:15 PM 45.4805 -125.0130 171° South 165 190 9,900 150 Climbing FlightAware ADS-B (KPFC)
Wed 05:30:35 PM 45.4645 -125.0097 172° South 165 190 9,900  Level FlightAware ADS-B (KPFC)
Wed 05:30:54 PM 45.4490 -125.0068 173° South 164 189 9,900  Level FlightAware ADS-B (KPFC)
Wed 05:31:14 PM 45.4331 -125.0043 174° South 164 189 9,900  Level FlightAware ADS-B (KPFC)
Wed 05:31:35 PM 45.4168 -125.0021 175° South 165 190 9,900  Level FlightAware ADS-B (KPFC)
Wed 05:32:06 PM 45.3916 -124.9996 177° South 164 189 9,900 -115 Level FlightAware ADS-B (KPFC)
Wed 05:32:27 PM 45.3757 -124.9987 179° South 164 189 9,800  Descending FlightAware ADS-B (KPFC)
Wed 05:33:07 PM 45.3438 -124.9988 181° South 164 189 9,900 100 Climbing FlightAware ADS-B (KPFC)
Wed 05:33:27 PM 45.3279 -124.9995 182° South 161 185 9,900 -610 Level FlightAware ADS-B (KPFC)
Wed 05:34:06 PM 45.3074 -125.0315 259° West 184 212 9,300 -167 Descending FlightAware ADS-B (KPFC)
Wed 05:34:39 PM 45.3021 -125.0650 257° West 157 181 9,700 462 Climbing FlightAware ADS-B (KPFC)
Wed 05:34:58 PM 45.2988 -125.0848 257° West 159 183 9,700 85 Level FlightAware ADS-B (KPFC)
Wed 05:35:50 PM 45.2887 -125.1382 258° West 161 185 9,800 -250 Climbing FlightAware ADS-B (KPFC)
Wed 05:36:34 PM 45.3128 -125.1356 59° Northeast 197 227 9,300 -179 Descending FlightAware ADS-B (KPFC)
Wed 05:36:57 PM 45.3225 -125.1138 59° Northeast 169 194 9,600 231 Climbing FlightAware ADS-B (KPFC)
Wed 05:37:26 PM 45.3361 -125.0863 54° Northeast 165 190 9,500  Descending FlightAware ADS-B (KPFC)
Wed 05:37:47 PM 45.3461 -125.0685 54° Northeast 167 192 9,600 340 Climbing FlightAware ADS-B (KPFC)
Wed 05:38:19 PM 45.3584 -125.0379 66° East 169 194 9,800 235 Climbing FlightAware ADS-B (KPFC)
Wed 05:38:38 PM 45.3655 -125.0183 63° Northeast 171 197 9,800  Level FlightAware ADS-B (KPFC)
Wed 05:38:58 PM 45.3726 -124.9989 65° Northeast 166 191 9,800 -692 Level FlightAware ADS-B (KPFC)
Wed 05:39:30 PM 45.3912 -124.9841 325° Northwest 183 211 9,200 -588 Descending FlightAware ADS-B (KPFC)
Wed 05:39:49 PM 45.3984 -125.0039 294° West 159 183 9,300 300 Climbing FlightAware ADS-B (KPFC)
Wed 05:40:10 PM 45.4077 -125.0213 315° West 158 182 9,400 556 Climbing FlightAware ADS-B (KPFC)
Wed 05:40:43 PM 45.4293 -125.0388 353° North 162 186 9,800 444 Climbing FlightAware ADS-B (KPFC)
Wed 05:41:04 PM 45.4442 -125.0400 355° North 163 188 9,800  Level FlightAware ADS-B (KPFC)
Wed 05:41:24 PM 45.4592 -125.0417 356° North 162 186 9,800  Level FlightAware ADS-B (KPFC)
Wed 05:41:59 PM 45.4859 -125.0442 342° North 156 180 9,800 -982 Level FlightAware ADS-B (KPFC)
Wed 05:42:19 PM 45.4968 -125.0622 300° West 201 231 8,900 -900 Descending FlightAware ADS-B (KPFC)
Wed 05:42:39 PM 45.5047 -125.0846 293° West 170 196 9,200 679 Climbing FlightAware ADS-B (KPFC)
Wed 05:43:12 PM 45.5144 -125.1178 277° West 172 198 9,500 566 Climbing FlightAware ADS-B (KPFC)
Wed 05:43:32 PM 45.5087 -125.1378 223° Southwest 162 186 9,700 615 Climbing FlightAware ADS-B (KPFC)
Wed 05:43:51 PM 45.4947 -125.1451 192° South 153 176 9,900 235 Climbing FlightAware ADS-B (KPFC)
Wed 05:44:23 PM 45.4711 -125.1525 191° South 169 194 9,900  Level FlightAware ADS-B (KPFC)
Wed 05:44:43 PM 45.4557 -125.1564 190° South 163 188 9,900  Level FlightAware ADS-B (KPFC)
Wed 05:45:03 PM 45.4399 -125.1600 190° South 163 188 9,900 -105 Level FlightAware ADS-B (KPFC)
Wed 05:45:40 PM 45.4116 -125.1648 185° South 162 186 9,800 -105 Descending FlightAware ADS-B (KPFC)
Wed 05:46:00 PM 45.3956 -125.1662 182° South 163 188 9,800  Level FlightAware ADS-B (KPFC)
Wed 05:46:40 PM 45.3640 -125.1668 181° South 162 186 9,800  Level FlightAware ADS-B (KPFC)
Wed 05:47:00 PM 45.3484 -125.1676 182° South 161 185 9,800 -486 Level FlightAware ADS-B (KPFC)
Wed 05:47:17 PM 45.3347 -125.1644 166° South 165 190 9,500 -1,535 Descending FlightAware ADS-B (KPFC)
Wed 05:47:43 PM 45.3188 -125.1374 124° Southeast 204 235 8,700 -522 Descending FlightAware ADS-B (KPFC)
Wed 05:48:03 PM 45.3093 -125.1188 126° Southeast 170 196 9,100 686 Climbing FlightAware ADS-B (KPFC)
Wed 05:48:18 PM 45.3020 -125.1047 124° Southeast 173 199 9,100 500 Level FlightAware ADS-B (KPFC)
Wed 05:48:39 PM 45.2918 -125.0852 124° Southeast 172 198 9,400 933 Climbing FlightAware ADS-B (KPFC)
Wed 05:49:03 PM 45.2804 -125.0627 126° Southeast 172 198 9,800 533 Climbing FlightAware ADS-B (KPFC)
Wed 05:49:24 PM 45.2707 -125.0444 127° Southeast 167 192 9,800  Level FlightAware ADS-B (KPFC)
Wed 05:49:59 PM 45.2542 -125.0122 125° Southeast 170 196 9,800  Level FlightAware ADS-B (KPFC)
Wed 05:51:19 PM 45.2217 -124.9365 118° Southeast 170 196 9,800  Level FlightAware ADS-B (KPFC)
Wed 05:51:39 PM 45.2146 -124.9160 114° Southeast 171 197 9,800 -787 Level FlightAware ADS-B (KPFC)
Wed 05:52:20 PM 45.2226 -124.8707 57° Northeast 182 209 9,000 -300 Descending FlightAware ADS-B (KPFC)
Wed 05:52:39 PM 45.2310 -124.8528 55° Northeast 167 192 9,500 610 Climbing FlightAware ADS-B (KPFC)
Wed 05:53:19 PM 45.2492 -124.8159 55° Northeast 172 198 9,600 167 Climbing FlightAware ADS-B (KPFC)
Wed 05:53:51 PM 45.2640 -124.7867 55° Northeast 172 198 9,700 115 Climbing FlightAware ADS-B (KPFC)
Wed 05:54:11 PM 45.2734 -124.7682 54° Northeast 171 197 9,700 146 Level FlightAware ADS-B (KPFC)
Wed 05:54:32 PM 45.2830 -124.7499 55° Northeast 166 191 9,800 111 Climbing FlightAware ADS-B (KPFC)
Wed 05:55:05 PM 45.2989 -124.7197 54° Northeast 174 200 9,800  Level FlightAware ADS-B (KPFC)
Wed 05:55:47 PM 45.3173 -124.6799 63° Northeast 172 198 9,800  Level FlightAware ADS-B (KPFC)
Wed 05:56:06 PM 45.3244 -124.6612 63° Northeast 174 200 9,800 -122 Level FlightAware ADS-B (KPFC)
Wed 05:56:36 PM 45.3359 -124.6307 54° Northeast 171 197 9,700 -122 Descending FlightAware ADS-B (KPFC)
Wed 05:56:55 PM 45.3467 -124.6157 39° Northeast 164 189 9,700  Level FlightAware ADS-B (KPFC)
Wed 05:57:15 PM 45.3618 -124.6053 15° North 185 213 9,700 107 Level FlightAware ADS-B (KPFC)
Wed 05:57:51 PM 45.3945 -124.6034 360° North 210 242 9,800  Climbing FlightAware ADS-B (KPFC)
Wed 05:58:10 PM 45.4143 -124.6037 359° North 223 257 9,700 -146 Descending FlightAware ADS-B (KPFC)
Wed 05:58:32 PM 45.4365 -124.6042 360° North 214 246 9,700 111 Level FlightAware ADS-B (KPFC)
Wed 05:59:04 PM 45.4693 -124.6039 North 207 238 9,800  Climbing FlightAware ADS-B (KPFC)
Wed 05:59:44 PM 45.5086 -124.6029 360° North 212 244 9,700 -83 Descending FlightAware ADS-B (KPFC)
Wed 06:00:16 PM 45.5372 -124.6041 358° North 164 189 9,700  Level FlightAware ADS-B (KPFC)
Wed 06:00:36 PM 45.5524 -124.6054 356° North 161 185 9,700  Level FlightAware ADS-B (KPFC)
Wed 06:00:56 PM 45.5673 -124.6073 354° North 161 185 9,700 -185 Level FlightAware ADS-B (KPFC)
Wed 06:01:41 PM 45.6005 -124.6171 325° Northwest 159 183 9,500 -216 Descending FlightAware ADS-B (KPFC)
Wed 06:02:47 PM 45.6222 -124.6847 294° West 160 184 9,300  Descending FlightAware ADS-B (KPFC)
Wed 06:03:06 PM 45.6280 -124.7027 294° West 166 191 9,500 615 Climbing FlightAware ADS-B (KPFC)
Wed 06:03:26 PM 45.6343 -124.7234 293° West 165 190 9,700 211 Climbing FlightAware ADS-B (KPFC)
Wed 06:04:03 PM 45.6442 -124.7607 289° West 160 184 9,700  Level FlightAware ADS-B (KPFC)
Wed 06:04:24 PM 45.6488 -124.7808 288° West 160 184 9,700  Level FlightAware ADS-B (KPFC)
Wed 06:04:43 PM 45.6533 -124.8007 288° West 160 184 9,700  Level FlightAware ADS-B (KPFC)
Wed 06:05:03 PM 45.6573 -124.8211 283° West 159 183 9,700  Level FlightAware ADS-B (KPFC)
Wed 06:05:36 PM 45.6623 -124.8539 277° West 158 182 9,700 -115 Level FlightAware ADS-B (KPFC)
Wed 06:05:55 PM 45.6584 -124.8732 225° Southwest 161 185 9,600 -450 Descending FlightAware ADS-B (KPFC)
Wed 06:06:16 PM 45.6424 -124.8771 167° South 182 209 9,400 226 Descending FlightAware ADS-B (KPFC)
Wed 06:06:48 PM 45.6207 -124.8553 128° Southeast 160 184 9,800 471 Climbing FlightAware ADS-B (KPFC)
Wed 06:07:07 PM 45.6134 -124.8382 115° Southeast 158 182 9,800  Level FlightAware ADS-B (KPFC)
Wed 06:07:26 PM 45.6062 -124.8201 120° Southeast 167 192 9,800 113 Level FlightAware ADS-B (KPFC)
Wed 06:08:00 PM 45.5913 -124.7883 124° Southeast 173 199 9,900 113 Climbing FlightAware ADS-B (KPFC)
Wed 06:08:19 PM 45.5825 -124.7708 124° Southeast 169 194 9,900  Level FlightAware ADS-B (KPFC)
Wed 06:08:39 PM 45.5723 -124.7524 132° Southeast 174 200 9,900 -450 Level FlightAware ADS-B (KPFC)
Wed 06:08:59 PM 45.5581 -124.7436 182° South 180 207 9,600 -1,171 Descending FlightAware ADS-B (KPFC)
Wed 06:09:20 PM 45.5426 -124.7562 234° Southwest 192 221 9,100 150 Descending FlightAware ADS-B (KPFC)
Wed 06:09:39 PM 45.5371 -124.7771 268° West 153 176 9,700 1,077 Climbing FlightAware ADS-B (KPFC)
Wed 06:09:59 PM 45.5374 -124.7963 272° West 150 173 9,800  Climbing FlightAware ADS-B (KPFC)
Wed 06:10:20 PM 45.5382 -124.8172 276° West 161 185 9,700 113 Descending FlightAware ADS-B (KPFC)
Wed 06:10:52 PM 45.5536 -124.8428 337° Northwest 174 200 9,900 706 Climbing FlightAware ADS-B (KPFC)
Wed 06:11:11 PM 45.5691 -124.8404 24° Northeast 182 209 10,300 1,077 Climbing FlightAware ADS-B (KPFC)
Wed 06:11:31 PM 45.5832 -124.8236 49° Northeast 223 257 10,600 1,358 Climbing FlightAware ADS-B (KPFC)
Wed 06:12:04 PM 45.6028 -124.7812 58° Northeast 222 255 11,500 1,083 Climbing FlightAware ADS-B (KPFC)
Wed 06:12:43 PM 45.6246 -124.7318 60° Northeast 230 265 11,900 1,000 Climbing FlightAware ADS-B (KPFC)
Wed 06:13:16 PM 45.6436 -124.6886 60° Northeast 228 262 12,700 1,355 Climbing FlightAware ADS-B (KPFC)
Wed 06:14:16 PM 45.6868 -124.6112 39° Northeast 273 314 14,000 1,313 Climbing FlightAware ADS-B (KPFC)
Wed 06:14:52 PM 45.7241 -124.5631 45° Northeast 323 372 14,800 1,342 Climbing FlightAware ADS-B (KPFC)
Wed 06:15:32 PM 45.7678 -124.4975 48° Northeast 358 412 15,700 1,714 Climbing FlightAware ADS-B (KPFC)
Wed 06:16:16 PM 45.8202 -124.4159 49° Northeast 386 444 17,200 2,214 Climbing FlightAware ADS-B (KPFC)
Wed 06:16:56 PM 45.8700 -124.3380 49° Northeast 395 455 18,800 1,244 Climbing FlightAware ADS-B (KPFC)
Wed 06:17:38 PM 45.9159 -124.2664 47° Northeast 398 458 18,900 150 Climbing FlightAware ADS-B
Wed 06:18:16 PM 45.9698 -124.1822 48° Northeast 397 457 19,000 154 Climbing FlightAware ADS-B
Wed 06:18:17 PM 45.9703 -124.1810 48° Northeast 397 457 19,000  Level FlightAware ADS-B
Wed 06:18:48 PM 46.0091 -124.1210 47° Northeast 399 459 19,000  Level FlightAware ADS-B
Wed 06:18:56 PM 46.0191 -124.1051 48° Northeast 400 460 19,000  Level FlightAware ADS-B
Wed 06:19:19 PM 46.0476 -124.0600 48° Northeast 401 461 19,000  Level FlightAware ADS-B
Wed 06:19:37 PM 46.0671 -124.0297 48° Northeast 401 461 19,000  Level FlightAware ADS-B
Wed 06:19:51 PM 46.0883 -123.9960 48° Northeast 399 459 19,000  Level FlightAware ADS-B
Wed 06:20:16 PM 46.1157 -123.9532 48° Northeast 400 460 19,000  Level FlightAware ADS-B
Wed 06:20:21 PM 46.1259 -123.9370 48° Northeast 400 460 19,000  Level FlightAware ADS-B
Wed 06:20:37 PM 46.1453 -123.9060 47° Northeast 399 459 19,000  Level FlightAware ADS-B
Wed 06:20:51 PM 46.1641 -123.8800 44° Northeast 398 458 19,000  Level FlightAware ADS-B
Wed 06:20:57 PM 46.1711 -123.8703 42° Northeast 396 456 19,000  Level FlightAware ADS-B
Wed 06:21:22 PM 46.2064 -123.8280 39° Northeast 395 455 19,000  Level FlightAware ADS-B
Wed 06:21:31 PM 46.2201 -123.8112 40° Northeast 394 453 19,000  Level FlightAware ADS-B (KPFC)
Wed 06:21:52 PM 46.2488 -123.7770 40° Northeast 394 453 19,000  Level FlightAware ADS-B
Wed 06:22:12 PM 46.2763 -123.7443 40° Northeast 394 453 19,000  Level FlightAware ADS-B (KPFC)
Wed 06:22:22 PM 46.2912 -123.7270 40° Northeast 393 452 19,000  Level FlightAware ADS-B
Wed 06:22:44 PM 46.3214 -123.6905 40° Northeast 394 453 19,000  Level FlightAware ADS-B (KPFC)
Wed 06:22:52 PM 46.3332 -123.6760 40° Northeast 393 452 19,000  Level FlightAware ADS-B
Wed 06:23:17 PM 46.3528 -123.6530 40° Northeast 394 453 19,000  Level FlightAware ADS-B
Wed 06:23:22 PM 46.3755 -123.6260 40° Northeast 393 452 19,000  Level FlightAware ADS-B
Wed 06:23:52 PM 46.4175 -123.5760 40° Northeast 392 451 19,000  Level FlightAware ADS-B
Wed 06:23:56 PM 46.4222 -123.5699 40° Northeast 386 444 19,000  Level FlightAware ADS-B (KPFC)
Wed 06:24:02 PM 46.4305 -123.5599 40° Northeast 392 451 19,000  Level FlightAware ADS-B
Wed 06:24:23 PM 46.4598 -123.5250 40° Northeast 391 450 19,000  Level FlightAware ADS-B
Wed 06:24:36 PM 46.4779 -123.5029 41° Northeast 387 445 19,000  Level FlightAware ADS-B (KPFC)
Wed 06:24:53 PM 46.5017 -123.4740 40° Northeast 394 453 19,000  Level FlightAware ADS-B
Wed 06:25:15 PM 46.5328 -123.4369 40° Northeast 394 453 19,000  Level FlightAware ADS-B
Wed 06:25:23 PM 46.5439 -123.4230 40° Northeast 394 453 19,000  Level FlightAware ADS-B
Wed 06:25:53 PM 46.5862 -123.3720 40° Northeast 393 452 19,000  Level FlightAware ADS-B
Wed 06:25:56 PM 46.5800 -123.3799 40° Northeast 393 452 19,000  Level FlightAware ADS-B
Wed 06:26:24 PM 46.6284 -123.3210 40° Northeast 391 450 19,000  Level FlightAware ADS-B
Wed 06:26:46 PM 46.6034 -123.3516 40° Northeast 391 450 19,000  Level FlightAware ADS-B
Wed 06:26:54 PM 46.6709 -123.2700 40° Northeast 391 450 19,000  Level FlightAware ADS-B
Wed 06:27:24 PM 46.7127 -123.2190 40° Northeast 391 450 19,000  Level FlightAware ADS-B
Wed 06:27:29 PM 46.7180 -123.2126 40° Northeast 391 450 19,000  Level FlightAware ADS-B (CYVR)
Wed 06:27:56 PM 46.7554 -123.1670 40° Northeast 370 426 19,000  Level FlightAware ADS-B
Wed 06:28:10 PM 46.7760 -123.1418 41° Northeast 345 397 19,000 -400 Level FlightAware ADS-B
Wed 06:28:26 PM 46.7934 -123.1200 40° Northeast 343 395 18,800 -400 Descending FlightAware ADS-B
Wed 06:28:40 PM 46.8094 -123.1009 41° Northeast 326 375 18,800 200 Level FlightAware ADS-B (KPFC)
Wed 06:28:56 PM 46.8290 -123.0770 40° Northeast 334 384 18,900 194 Climbing FlightAware ADS-B
Wed 06:29:11 PM 46.8465 -123.0557 40° Northeast 349 402 18,900 -273 Level FlightAware ADS-B
Wed 06:29:18 PM 46.8564 -123.0436 40° Northeast 352 405 18,800 -750 Descending FlightAware ADS-B
Wed 06:29:27 PM 46.8661 -123.0320 40° Northeast 354 407 18,700 -1,200 Descending FlightAware ADS-B
Wed 06:29:48 PM 46.8937 -122.9979 40° Northeast 352 405 18,200 -1,200 Descending FlightAware ADS-B
Wed 06:29:57 PM 46.9037 -122.9860 40° Northeast 350 403 18,100 -1,077 Descending FlightAware ADS-B
Wed 06:30:27 PM 46.9413 -122.9390 40° Northeast 346 398 17,500 -1,180 Descending FlightAware ADS-B
Wed 06:30:58 PM 46.9779 -122.8940 40° Northeast 341 392 16,900 -1,313 Descending FlightAware ADS-B
Wed 06:30:59 PM 46.9754 -122.8971 40° Northeast 341 392 16,800 -1,400 Descending FlightAware ADS-B (CYVR)
Wed 06:31:28 PM 47.0134 -122.8490 41° Northeast 337 388 16,200 -1,355 Descending FlightAware ADS-B
Wed 06:31:30 PM 46.9869 -122.8828 41° Northeast 336 387 16,100 -1,600 Descending FlightAware ADS-B
Wed 06:31:58 PM 47.0486 -122.8040 41° Northeast 331 381 15,400 -1,345 Descending FlightAware ADS-B
Wed 06:32:28 PM 47.0835 -122.7590 41° Northeast 329 379 14,800 -1,475 Descending FlightAware ADS-B
Wed 06:32:59 PM 47.1180 -122.7150 41° Northeast 327 376 13,900 -1,714 Descending FlightAware ADS-B
Wed 06:33:24 PM 47.1468 -122.6790 41° Northeast 326 375 13,200 -1,742 Descending FlightAware ADS-B
Wed 06:33:30 PM 47.1289 -122.7011 41° Northeast 326 375 13,000 -1,800 Descending FlightAware ADS-B
Wed 06:33:54 PM 47.1811 -122.6340 41° Northeast 324 373 12,300 -1,833 Descending FlightAware ADS-B
Wed 06:34:06 PM 47.1939 -122.6179 41° Northeast 323 372 11,900 -1,714 Descending FlightAware ADS-B (CYVR)
Wed 06:34:22 PM 47.2118 -122.5950 41° Northeast 322 371 11,500 -1,714 Descending FlightAware ADS-B
Wed 06:34:41 PM 47.2356 -122.5648 41° Northeast 313 360 10,900 -1,826 Descending FlightAware ADS-B
Wed 06:34:45 PM 47.2382 -122.5610 41° Northeast 312 359 10,800 -1,588 Descending FlightAware ADS-B
Wed 06:35:15 PM 47.2696 -122.5200 42° Northeast 295 339 10,000 -1,756 Descending FlightAware ADS-B
Wed 06:35:26 PM 47.2795 -122.5076 41° Northeast 289 333 9,600 -1,500 Descending FlightAware ADS-B
Wed 06:35:31 PM 47.2847 -122.5010 41° Northeast 290 334 9,600 -1,200 Level FlightAware ADS-B
Wed 06:35:46 PM 47.3004 -122.4810 42° Northeast 288 331 9,200 -1,263 Descending FlightAware ADS-B
Wed 06:35:50 PM 47.2988 -122.4826 42° Northeast 287 330 9,200 -857 Level FlightAware ADS-B
Wed 06:35:53 PM 47.3073 -122.4720 39° Northeast 287 330 9,100 -2,000 Descending FlightAware ADS-B
Wed 06:35:56 PM 47.3109 -122.4680 33° Northeast 285 328 9,000 -1,000 Descending FlightAware ADS-B
Wed 06:35:59 PM 47.3146 -122.4650 27° Northeast 284 327 9,000 -857 Level FlightAware ADS-B
Wed 06:36:03 PM 47.3195 -122.4620 20° North 283 326 8,900 -1,500 Descending FlightAware ADS-B
Wed 06:36:07 PM 47.3243 -122.4610 13° North 282 325 8,800 -1,000 Descending FlightAware ADS-B
Wed 06:36:09 PM 47.3266 -122.4601 North 280 322 8,800  Level FlightAware ADS-B
Wed 06:36:10 PM 47.3282 -122.4600 North 281 323 8,800 -857 Level FlightAware ADS-B
Wed 06:36:16 PM 47.3359 -122.4590 North 278 320 8,700 -667 Descending FlightAware ADS-B
Wed 06:36:19 PM 47.3400 -122.4590 360° North 276 318 8,700 -857 Level FlightAware ADS-B
Wed 06:36:30 PM 47.3519 -122.4599 358° North 273 314 8,500 -1,125 Descending FlightAware ADS-B
Wed 06:36:35 PM 47.3592 -122.4600 357° North 271 312 8,400 -600 Descending FlightAware ADS-B
Wed 06:36:50 PM 47.3777 -122.4617 357° North 264 304 8,300 -800 Descending FlightAware ADS-B
Wed 06:37:05 PM 47.3968 -122.4630 357° North 259 298 8,000 -1,200 Descending FlightAware ADS-B
Wed 06:37:10 PM 47.4018 -122.4638 357° North 258 297 7,900 -1,125 Descending FlightAware ADS-B
Wed 06:37:21 PM 47.4148 -122.4650 357° North 254 292 7,700 -1,579 Descending FlightAware ADS-B
Wed 06:37:29 PM 47.4249 -122.4657 357° North 254 292 7,400 -1,875 Descending FlightAware ADS-B
Wed 06:37:37 PM 47.4343 -122.4670 357° North 254 292 7,200 -1,714 Descending FlightAware ADS-B
Wed 06:37:50 PM 47.4383 -122.4669 357° North 254 292 6,800 -2,000 Descending FlightAware ADS-B
Wed 06:37:52 PM 47.4521 -122.4680 357° North 254 292 6,700 -1,667 Descending FlightAware ADS-B
Wed 06:38:08 PM 47.4700 -122.4700 357° North 243 280 6,300 -1,412 Descending FlightAware ADS-B
Wed 06:38:09 PM 47.4709 -122.4696 357° North 243 280 6,300 -1,125 Level FlightAware ADS-B
Wed 06:38:24 PM 47.4873 -122.4710 357° North 233 268 6,000 -1,500 Descending FlightAware ADS-B
Wed 06:38:29 PM 47.4920 -122.4712 357° North 231 266 5,800 -2,400 Descending FlightAware ADS-B
Wed 06:38:39 PM 47.5036 -122.4720 358° North 232 267 5,400 -2,400 Descending FlightAware ADS-B
Wed 06:38:49 PM 47.5085 -122.4722 359° North 233 268 5,000 -2,500 Descending FlightAware ADS-B
Wed 06:38:51 PM 47.5165 -122.4720 359° North 234 269 4,900 -2,000 Descending FlightAware ADS-B
Wed 06:38:55 PM 47.5213 -122.4720 North 235 270 4,800 -2,211 Descending FlightAware ADS-B
Wed 06:39:10 PM 47.5335 -122.4724 North 236 272 4,200 -2,625 Descending FlightAware ADS-B
Wed 06:39:11 PM 47.5381 -122.4720 North 236 272 4,100 -2,824 Descending FlightAware ADS-B
Wed 06:39:27 PM 47.5556 -122.4720 North 230 265 3,400 -2,769 Descending FlightAware ADS-B
Wed 06:39:50 PM 47.5792 -122.4702 North 224 258 2,300 -2,667 Descending FlightAware ADS-B
Wed 06:39:54 PM 47.5836 -122.4690 North 229 264 2,200 -857 Descending FlightAware ADS-B
Wed 06:40:04 PM 47.5930 -122.4640 23° Northeast 211 243 2,100 -375 Descending FlightAware ADS-B
Wed 06:40:10 PM 47.5973 -122.4590 32° Northeast 204 235 2,100 -250 Level FlightAware ADS-B
Wed 06:40:28 PM 47.6073 -122.4420 56° Northeast 180 207 2,000 -632 Descending FlightAware ADS-B
Wed 06:40:29 PM 47.6073 -122.4416 61° Northeast 176 203 1,900 -1,500 Descending FlightAware ADS-B
Wed 06:40:32 PM 47.6087 -122.4380 62° Northeast 174 200 1,900 -353 Level FlightAware ADS-B
Wed 06:40:46 PM 47.6126 -122.4220 74° East 167 192 1,800 -333 Descending FlightAware ADS-B
Wed 06:40:50 PM 47.6130 -122.4180 83° East 166 191 1,800  Level FlightAware ADS-B
Wed 06:40:52 PM 47.6132 -122.4150 84° East 166 191 1,800  Level FlightAware ADS-B
Wed 06:40:57 PM 47.6132 -122.4100 90° East 165 190 1,800 -500 Level FlightAware ADS-B
Wed 06:41:04 PM 47.6127 -122.4020 99° East 166 191 1,700 -600 Descending FlightAware ADS-B
Wed 06:41:07 PM 47.6122 -122.3990 102° East 166 191 1,700  Level FlightAware ADS-B
Wed 06:41:10 PM 47.6122 -122.3990 105° East 166 191 1,700  Level FlightAware ADS-B
Wed 06:41:17 PM 47.6096 -122.3880 113° Southeast 167 192 1,700 -300 Level FlightAware ADS-B
Wed 06:41:30 PM 47.6046 -122.3761 127° Southeast 162 186 1,600 -353 Descending FlightAware ADS-B
Wed 06:41:34 PM 47.6023 -122.3720 120° Southeast 166 191 1,600 -1,000 Level FlightAware ADS-B
Wed 06:41:42 PM 47.5987 -122.3660 132° Southeast 156 180 1,400 -1,125 Descending FlightAware ADS-B
Wed 06:41:50 PM 47.6004 -122.3686 137° Southeast 154 177 1,300 -789 Descending FlightAware ADS-B
Wed 06:42:20 PM 47.5797 -122.3456 137° Southeast 148 170 900 -814 Descending Seattle Center
Wed 06:42:49 PM 47.5600 -122.3283 149° Southeast 153 176 500 -700 Descending Seattle Center
Wed 06:43:20 PM 47.5481 -122.3169 147° Southeast 158 182 200 18,197 Descending Seattle Center
Wed 06:43:50 PM 47.5219 -122.2961 152° Southeast 152 175 19,000 37,600 Climbing Seattle Center
Wed 06:45:00 PM 47.5300 -122.3020 182° South  Level Estimated

Login

Don't have an account? Register now (free) for customized features, flight alerts, and more!